Time,TemperatureF,DewpointF,PressureIn,WindDirection,WindDirectionDegrees,WindSpeedMPH,WindSpeedGustMPH,Humidity,HourlyPrecipIn,Conditions,Clouds,dailyrainin,SoftwareType,DateUTC
2013-02-03 00:00:00,41.7,26.3,30.00,SW,225,0.0,0.0,54,0.00,,---,0.00,VWS V14.01,2013-02-03 05:00:00,
2013-02-03 00:01:00,44.6,33.2,30.00,NNW,338,2.2,2.2,64,0.00,,---,0.00,VWS V14.01,2013-02-03 05:01:00,
2013-02-03 00:03:00,44.8,33.0,30.00,NNW,338,0.0,2.2,63,0.00,,---,0.00,VWS V14.01,2013-02-03 05:03:00,
2013-02-03 00:05:00,41.2,25.8,30.00,SW,225,0.0,0.0,54,0.00,,---,0.00,VWS V14.01,2013-02-03 05:05:00,
2013-02-03 00:06:00,45.0,32.3,30.00,NNW,338,0.0,2.2,61,0.00,,---,0.00,VWS V14.01,2013-02-03 05:06:00,
2013-02-03 00:10:00,40.6,25.8,30.00,SW,225,0.0,0.0,55,0.00,,---,0.00,VWS V14.01,2013-02-03 05:10:00,
2013-02-03 00:11:00,44.6,30.3,30.00,NW,315,0.0,0.0,57,0.00,,---,0.00,VWS V14.01,2013-02-03 05:11:00,
2013-02-03 00:15:00,39.9,25.1,29.97,SW,225,0.0,0.0,55,0.00,,---,0.00,VWS V14.01,2013-02-03 05:15:00,
2013-02-03 00:16:00,43.7,29.0,30.00,NW,315,0.0,0.0,56,0.00,,---,0.00,VWS V14.01,2013-02-03 05:16:00,
2013-02-03 00:18:00,43.3,28.3,30.00,NW,315,0.0,0.0,55,0.00,,---,0.00,VWS V14.01,2013-02-03 05:18:00,
2013-02-03 00:20:00,39.6,24.7,29.97,SW,225,0.0,0.0,55,0.00,,---,0.00,VWS V14.01,2013-02-03 05:20:00,
2013-02-03 00:23:00,43.0,27.9,30.00,NW,315,0.0,0.0,55,0.00,,---,0.00,VWS V14.01,2013-02-03 05:23:00,
2013-02-03 00:25:00,39.2,24.8,29.97,SW,225,0.0,0.0,56,0.00,,---,0.00,VWS V14.01,2013-02-03 05:25:00,
2013-02-03 00:28:00,43.5,28.4,30.00,NNW,338,0.0,0.0,55,0.00,,---,0.00,VWS V14.01,2013-02-03 05:28:00,
2013-02-03 00:30:00,39.2,25.3,29.97,ESE,112,0.0,0.0,57,0.00,,---,0.00,VWS V14.01,2013-02-03 05:30:00,
2013-02-03 00:33:00,43.5,28.4,30.00,NNW,338,0.0,0.0,55,0.00,,---,0.00,VWS V14.01,2013-02-03 05:33:00,
2013-02-03 00:35:00,38.7,25.2,29.97,SSE,158,0.0,0.0,58,0.00,,---,0.00,VWS V14.01,2013-02-03 05:35:00,
2013-02-03 00:38:00,43.7,28.2,30.00,NNW,338,0.0,0.0,54,0.00,,---,0.00,VWS V14.01,2013-02-03 05:38:00,
2013-02-03 00:40:00,38.3,24.8,29.97,SSE,158,0.0,0.0,58,0.00,,---,0.00,VWS V14.01,2013-02-03 05:40:00,
2013-02-03 00:43:00,43.5,28.0,29.97,West,270,0.0,0.0,54,0.00,,---,0.00,VWS V14.01,2013-02-03 05:43:00,
2013-02-03 00:45:00,37.9,24.9,29.97,SSE,158,0.0,0.0,59,0.00,,---,0.00,VWS V14.01,2013-02-03 05:45:00,
2013-02-03 00:48:00,43.3,27.8,29.97,SW,225,0.0,0.0,54,0.00,,---,0.00,VWS V14.01,2013-02-03 05:48:00,
2013-02-03 00:50:00,38.3,25.6,29.97,SSE,158,0.0,0.0,60,0.00,,---,0.00,VWS V14.01,2013-02-03 05:50:00,
2013-02-03 00:53:00,42.8,27.3,29.97,SW,225,0.0,0.0,54,0.00,,---,0.00,VWS V14.01,2013-02-03 05:53:00,
2013-02-03 00:55:00,38.1,25.5,29.97,SSE,158,0.0,0.0,60,0.00,,---,0.00,VWS V14.01,2013-02-03 05:55:00,
2013-02-03 00:58:00,42.6,27.1,30.00,SW,225,0.0,0.0,54,0.00,,---,0.00,VWS V14.01,2013-02-03 05:58:00,
2013-02-03 01:00:00,37.6,25.4,29.94,SSE,158,0.0,0.0,61,0.00,,---,0.00,VWS V14.01,2013-02-03 06:00:00,
2013-02-03 01:03:00,41.5,26.1,30.00,SW,225,0.0,0.0,54,0.00,,---,0.00,VWS V14.01,2013-02-03 06:03:00,
2013-02-03 01:05:00,36.7,24.9,29.94,WSW,248,0.0,0.0,62,0.00,,---,0.00,VWS V14.01,2013-02-03 06:05:00,
2013-02-03 01:08:00,41.0,25.6,30.00,SW,225,0.0,0.0,54,0.00,,---,0.00,VWS V14.01,2013-02-03 06:08:00,
2013-02-03 01:10:00,36.5,24.7,29.94,WSW,248,0.0,0.0,62,0.00,,---,0.00,VWS V14.01,2013-02-03 06:10:00,
2013-02-03 01:13:00,40.5,25.6,29.97,SW,225,0.0,0.0,55,0.00,,---,0.00,VWS V14.01,2013-02-03 06:13:00,
2013-02-03 01:15:00,36.3,25.0,29.97,WNW,292,0.0,0.0,63,0.00,,---,0.00,VWS V14.01,2013-02-03 06:15:00,
2013-02-03 01:18:00,39.7,24.9,29.97,SW,225,0.0,0.0,55,0.00,,---,0.00,VWS V14.01,2013-02-03 06:18:00,
2013-02-03 01:20:00,36.5,25.5,29.97,WNW,292,0.0,0.0,64,0.00,,---,0.00,VWS V14.01,2013-02-03 06:20:00,
2013-02-03 01:23:00,39.4,25.0,29.97,SW,225,0.0,0.0,56,0.00,,---,0.00,VWS V14.01,2013-02-03 06:23:00,
2013-02-03 01:25:00,36.5,25.9,29.97,WNW,292,0.0,0.0,65,0.00,,---,0.00,VWS V14.01,2013-02-03 06:25:00,
2013-02-03 01:28:00,39.2,24.8,29.97,SW,225,0.0,0.0,56,0.00,,---,0.00,VWS V14.01,2013-02-03 06:28:00,
2013-02-03 01:30:00,36.3,25.7,29.97,NW,315,0.0,0.0,65,0.00,,---,0.00,VWS V14.01,2013-02-03 06:30:00,
2013-02-03 01:33:00,39.0,25.1,29.97,SSE,158,0.0,0.0,57,0.00,,---,0.00,VWS V14.01,2013-02-03 06:33:00,
2013-02-03 01:35:00,36.3,25.7,29.97,WNW,292,0.0,0.0,65,0.00,,---,0.00,VWS V14.01,2013-02-03 06:35:00,
2013-02-03 01:38:00,38.7,25.2,29.97,SSE,158,0.0,0.0,58,0.00,,---,0.00,VWS V14.01,2013-02-03 06:38:00,
2013-02-03 01:40:00,36.3,25.7,29.97,SW,225,0.0,0.0,65,0.00,,---,0.00,VWS V14.01,2013-02-03 06:40:00,
2013-02-03 01:43:00,38.3,25.2,29.97,SSE,158,0.0,0.0,59,0.00,,---,0.00,VWS V14.01,2013-02-03 06:43:00,
2013-02-03 01:45:00,36.0,25.7,29.94,SW,225,0.0,0.0,66,0.00,,---,0.00,VWS V14.01,2013-02-03 06:45:00,
2013-02-03 01:48:00,38.1,25.1,29.97,SSE,158,0.0,0.0,59,0.00,,---,0.00,VWS V14.01,2013-02-03 06:48:00,
2013-02-03 01:50:00,35.6,25.4,29.94,SW,225,0.0,0.0,66,0.00,,---,0.00,VWS V14.01,2013-02-03 06:50:00,
2013-02-03 01:53:00,38.1,25.5,29.97,SSE,158,0.0,0.0,60,0.00,,---,0.00,VWS V14.01,2013-02-03 06:53:00,
2013-02-03 01:55:00,35.6,25.4,29.94,SW,225,0.0,0.0,66,0.00,,---,0.00,VWS V14.01,2013-02-03 06:55:00,
2013-02-03 01:58:00,37.9,25.7,29.94,SSE,158,0.0,0.0,61,0.00,,---,0.00,VWS V14.01,2013-02-03 06:58:00,
2013-02-03 02:00:00,35.6,25.7,29.94,SW,225,0.0,0.0,67,0.00,,---,0.00,VWS V14.01,2013-02-03 07:00:00,
2013-02-03 02:03:00,37.0,25.2,29.94,SSE,158,0.0,0.0,62,0.00,,---,0.00,VWS V14.01,2013-02-03 07:03:00,
2013-02-03 02:05:00,35.4,25.6,29.94,SW,225,0.0,0.0,67,0.00,,---,0.00,VWS V14.01,2013-02-03 07:05:00,
2013-02-03 02:08:00,36.7,24.9,29.94,WSW,248,0.0,0.0,62,0.00,,---,0.00,VWS V14.01,2013-02-03 07:08:00,
2013-02-03 02:10:00,35.2,25.4,29.94,SW,225,0.0,0.0,67,0.00,,---,0.00,VWS V14.01,2013-02-03 07:10:00,
2013-02-03 02:13:00,36.3,25.0,29.97,WSW,248,0.0,0.0,63,0.00,,---,0.00,VWS V14.01,2013-02-03 07:13:00,
2013-02-03 02:15:00,34.9,25.0,29.94,SW,225,0.0,0.0,67,0.00,,---,0.00,VWS V14.01,2013-02-03 07:15:00,
2013-02-03 02:18:00,36.3,25.3,29.97,NW,315,0.0,0.0,64,0.00,,---,0.00,VWS V14.01,2013-02-03 07:18:00,
2013-02-03 02:20:00,34.9,25.4,29.94,SW,225,0.0,0.0,68,0.00,,---,0.00,VWS V14.01,2013-02-03 07:20:00,
2013-02-03 02:23:00,36.7,26.0,29.97,WNW,292,0.0,0.0,65,0.00,,---,0.00,VWS V14.01,2013-02-03 07:23:00,
2013-02-03 02:25:00,34.5,25.4,29.94,SW,225,0.0,0.0,69,0.00,,---,0.00,VWS V14.01,2013-02-03 07:25:00,
2013-02-03 02:28:00,36.3,25.7,29.97,NW,315,0.0,0.0,65,0.00,,---,0.00,VWS V14.01,2013-02-03 07:28:00,
2013-02-03 02:30:00,34.7,25.9,29.97,SW,225,0.0,0.0,70,0.00,,---,0.00,VWS V14.01,2013-02-03 07:30:00,
2013-02-03 02:33:00,36.1,25.5,29.97,NW,315,0.0,0.0,65,0.00,,---,0.00,VWS V14.01,2013-02-03 07:33:00,
2013-02-03 02:35:00,34.3,25.6,29.97,SW,225,0.0,0.0,70,0.00,,---,0.00,VWS V14.01,2013-02-03 07:35:00,
2013-02-03 02:38:00,36.1,25.5,29.97,NW,315,0.0,0.0,65,0.00,,---,0.00,VWS V14.01,2013-02-03 07:38:00,
2013-02-03 02:40:00,34.0,25.2,29.97,SW,225,0.0,0.0,70,0.00,,---,0.00,VWS V14.01,2013-02-03 07:40:00,
2013-02-03 02:43:00,36.1,25.9,29.94,SW,225,0.0,0.0,66,0.00,,---,0.00,VWS V14.01,2013-02-03 07:43:00,
2013-02-03 02:45:00,34.0,25.2,29.97,SW,225,0.0,0.0,70,0.00,,---,0.00,VWS V14.01,2013-02-03 07:45:00,
2013-02-03 02:48:00,35.6,25.4,29.94,SW,225,0.0,0.0,66,0.00,,---,0.00,VWS V14.01,2013-02-03 07:48:00,
2013-02-03 02:50:00,33.8,25.4,29.97,SW,225,0.0,0.0,71,0.00,,---,0.00,VWS V14.01,2013-02-03 07:50:00,
2013-02-03 02:53:00,35.4,25.6,29.94,SW,225,0.0,0.0,67,0.00,,---,0.00,VWS V14.01,2013-02-03 07:53:00,
2013-02-03 02:55:00,34.2,25.8,29.97,SW,225,0.0,0.0,71,0.00,,---,0.00,VWS V14.01,2013-02-03 07:55:00,
2013-02-03 02:58:00,35.8,25.5,29.94,SW,225,0.0,0.0,66,0.00,,---,0.00,VWS V14.01,2013-02-03 07:58:00,
2013-02-03 03:00:00,34.0,25.6,29.97,SW,225,0.0,0.0,71,0.00,,---,0.00,VWS V14.01,2013-02-03 08:00:00,
2013-02-03 03:03:00,35.4,25.6,29.94,SW,225,0.0,0.0,67,0.00,,---,0.00,VWS V14.01,2013-02-03 08:03:00,
2013-02-03 03:05:00,33.8,26.1,29.97,WSW,248,0.0,0.0,73,0.00,,---,0.00,VWS V14.01,2013-02-03 08:05:00,
2013-02-03 03:08:00,35.4,25.6,29.94,SW,225,0.0,0.0,67,0.00,,---,0.00,VWS V14.01,2013-02-03 08:08:00,
2013-02-03 03:10:00,33.3,25.6,29.97,ESE,112,0.0,0.0,73,0.00,,---,0.00,VWS V14.01,2013-02-03 08:10:00,
2013-02-03 03:13:00,35.1,25.2,29.94,SW,225,0.0,0.0,67,0.00,,---,0.00,VWS V14.01,2013-02-03 08:13:00,
2013-02-03 03:15:00,33.1,25.4,29.97,ESE,112,0.0,0.0,73,0.00,,---,0.00,VWS V14.01,2013-02-03 08:15:00,
2013-02-03 03:18:00,34.9,25.4,29.94,SW,225,0.0,0.0,68,0.00,,---,0.00,VWS V14.01,2013-02-03 08:18:00,
2013-02-03 03:20:00,33.6,25.9,29.97,SE,135,0.0,0.0,73,0.00,,---,0.00,VWS V14.01,2013-02-03 08:20:00,
2013-02-03 03:23:00,34.7,25.6,29.94,SW,225,0.0,0.0,69,0.00,,---,0.00,VWS V14.01,2013-02-03 08:23:00,
2013-02-03 03:25:00,33.6,26.2,29.97,SE,135,0.0,0.0,74,0.00,,---,0.00,VWS V14.01,2013-02-03 08:25:00,
2013-02-03 03:28:00,34.7,25.6,29.97,SW,225,0.0,0.0,69,0.00,,---,0.00,VWS V14.01,2013-02-03 08:28:00,
2013-02-03 03:30:00,33.3,25.9,29.94,SSE,158,0.0,0.0,74,0.00,,---,0.00,VWS V14.01,2013-02-03 08:30:00,
2013-02-03 03:33:00,34.5,25.8,29.97,SW,225,0.0,0.0,70,0.00,,---,0.00,VWS V14.01,2013-02-03 08:33:00,
2013-02-03 03:35:00,32.9,25.5,29.94,SSE,158,0.0,0.0,74,0.00,,---,0.00,VWS V14.01,2013-02-03 08:35:00,
2013-02-03 03:38:00,34.2,25.4,29.97,SW,225,0.0,0.0,70,0.00,,---,0.00,VWS V14.01,2013-02-03 08:38:00,
2013-02-03 03:40:00,32.7,25.4,29.94,SSE,158,0.0,0.0,74,0.00,,---,0.00,VWS V14.01,2013-02-03 08:40:00,
2013-02-03 03:43:00,33.8,25.1,29.97,SW,225,0.0,0.0,70,0.00,,---,0.00,VWS V14.01,2013-02-03 08:43:00,
2013-02-03 03:45:00,33.3,26.2,29.97,WNW,292,0.0,0.0,75,0.00,,---,0.00,VWS V14.01,2013-02-03 08:45:00,
2013-02-03 03:48:00,34.0,25.2,29.97,SW,225,0.0,0.0,70,0.00,,---,0.00,VWS V14.01,2013-02-03 08:48:00,
2013-02-03 03:50:00,33.6,26.9,29.97,WSW,248,0.0,0.0,76,0.00,,---,0.00,VWS V14.01,2013-02-03 08:50:00,
2013-02-03 03:53:00,34.0,25.6,29.97,SW,225,0.0,0.0,71,0.00,,---,0.00,VWS V14.01,2013-02-03 08:53:00,
2013-02-03 03:55:00,33.1,26.0,29.97,WNW,292,0.0,0.0,75,0.00,,---,0.00,VWS V14.01,2013-02-03 08:55:00,
2013-02-03 03:58:00,34.2,25.8,29.97,SW,225,0.0,0.0,71,0.00,,---,0.00,VWS V14.01,2013-02-03 08:58:00,
2013-02-03 04:00:00,33.6,26.9,29.97,SSE,158,0.0,0.0,76,0.00,,---,0.00,VWS V14.01,2013-02-03 09:00:00,
2013-02-03 04:03:00,34.0,25.9,29.97,WSW,248,0.0,0.0,72,0.00,,---,0.00,VWS V14.01,2013-02-03 09:03:00,
2013-02-03 04:05:00,33.1,26.4,29.97,SSE,158,0.0,0.0,76,0.00,,---,0.00,VWS V14.01,2013-02-03 09:05:00,
2013-02-03 04:08:00,33.6,25.9,29.97,WSW,248,0.0,0.0,73,0.00,,---,0.00,VWS V14.01,2013-02-03 09:08:00,
2013-02-03 04:10:00,32.9,26.2,29.97,South,180,0.0,0.0,76,0.00,,---,0.00,VWS V14.01,2013-02-03 09:10:00,
2013-02-03 04:13:00,33.3,25.6,29.97,ESE,112,0.0,0.0,73,0.00,,---,0.00,VWS V14.01,2013-02-03 09:13:00,
2013-02-03 04:15:00,32.7,26.0,29.97,South,180,0.0,0.0,76,0.00,,---,0.00,VWS V14.01,2013-02-03 09:15:00,
2013-02-03 04:18:00,33.1,25.4,29.97,ESE,112,0.0,0.0,73,0.00,,---,0.00,VWS V14.01,2013-02-03 09:18:00,
2013-02-03 04:20:00,32.5,25.8,29.97,SSE,158,0.0,0.0,76,0.00,,---,0.00,VWS V14.01,2013-02-03 09:20:00,
2013-02-03 04:23:00,33.8,26.1,29.97,SE,135,0.0,0.0,73,0.00,,---,0.00,VWS V14.01,2013-02-03 09:23:00,
2013-02-03 04:25:00,32.4,25.6,29.97,SSE,158,0.0,0.0,76,0.00,,---,0.00,VWS V14.01,2013-02-03 09:25:00,
2013-02-03 04:28:00,33.4,25.7,29.94,SE,135,0.0,0.0,73,0.00,,---,0.00,VWS V14.01,2013-02-03 09:28:00,
2013-02-03 04:30:00,32.0,25.3,29.97,SSE,158,0.0,0.0,76,0.00,,---,0.00,VWS V14.01,2013-02-03 09:30:00,
2013-02-03 04:33:00,33.1,25.7,29.94,SSE,158,0.0,0.0,74,0.00,,---,0.00,VWS V14.01,2013-02-03 09:33:00,
2013-02-03 04:35:00,32.2,25.5,29.97,SSE,158,0.0,0.0,76,0.00,,---,0.00,VWS V14.01,2013-02-03 09:35:00,
2013-02-03 04:38:00,32.7,25.4,29.94,SSE,158,0.0,0.0,74,0.00,,---,0.00,VWS V14.01,2013-02-03 09:38:00,
2013-02-03 04:40:00,32.4,26.0,29.97,SSE,158,0.0,0.0,77,0.00,,---,0.00,VWS V14.01,2013-02-03 09:40:00,
2013-02-03 04:43:00,32.7,25.7,29.97,NNW,338,0.0,0.0,75,0.00,,---,0.00,VWS V14.01,2013-02-03 09:43:00,
2013-02-03 04:45:00,32.7,26.0,29.97,SSE,158,0.0,0.0,76,0.00,,---,0.00,VWS V14.01,2013-02-03 09:45:00,
2013-02-03 04:48:00,33.3,26.5,29.97,WNW,292,0.0,0.0,76,0.00,,---,0.00,VWS V14.01,2013-02-03 09:48:00,
2013-02-03 04:50:00,32.4,26.0,29.97,SSE,158,0.0,0.0,77,0.00,,---,0.00,VWS V14.01,2013-02-03 09:50:00,
2013-02-03 04:53:00,33.3,26.5,29.97,WSW,248,0.0,0.0,76,0.00,,---,0.00,VWS V14.01,2013-02-03 09:53:00,
2013-02-03 04:55:00,32.2,25.8,29.97,SSE,158,0.0,0.0,77,0.00,,---,0.00,VWS V14.01,2013-02-03 09:55:00,
2013-02-03 04:58:00,33.3,26.5,29.97,NW,315,0.0,0.0,76,0.00,,---,0.00,VWS V14.01,2013-02-03 09:58:00,
2013-02-03 05:00:00,32.2,25.8,29.97,SSE,158,0.0,0.0,77,0.00,,---,0.00,VWS V14.01,2013-02-03 10:00:00,
2013-02-03 05:03:00,33.3,26.5,29.97,SSE,158,0.0,0.0,76,0.00,,---,0.00,VWS V14.01,2013-02-03 10:03:00,
2013-02-03 05:05:00,32.0,25.6,29.97,SSE,158,0.0,0.0,77,0.00,,---,0.00,VWS V14.01,2013-02-03 10:05:00,
2013-02-03 05:08:00,33.1,26.0,29.97,SSE,158,0.0,0.0,75,0.00,,---,0.00,VWS V14.01,2013-02-03 10:08:00,
2013-02-03 05:10:00,31.8,25.4,29.97,SSE,158,0.0,0.0,77,0.00,,---,0.00,VWS V14.01,2013-02-03 10:10:00,
2013-02-03 05:14:00,32.9,26.2,29.97,South,180,0.0,0.0,76,0.00,,---,0.00,VWS V14.01,2013-02-03 10:14:00,
2013-02-03 05:15:00,31.5,25.1,29.97,SSE,158,0.0,0.0,77,0.00,,---,0.00,VWS V14.01,2013-02-03 10:15:00,
2013-02-03 05:19:00,32.7,26.0,29.97,South,180,0.0,0.0,76,0.00,,---,0.00,VWS V14.01,2013-02-03 10:19:00,
2013-02-03 05:20:00,30.9,24.6,29.97,SSE,158,0.0,0.0,77,0.00,,---,0.00,VWS V14.01,2013-02-03 10:20:00,
2013-02-03 05:24:00,32.5,25.8,29.97,SSE,158,0.0,0.0,76,0.00,,---,0.00,VWS V14.01,2013-02-03 10:24:00,
2013-02-03 05:25:00,30.6,24.2,29.97,SSE,158,0.0,0.0,77,0.00,,---,0.00,VWS V14.01,2013-02-03 10:25:00,
2013-02-03 05:29:00,32.4,25.6,29.97,SSE,158,0.0,0.0,76,0.00,,---,0.00,VWS V14.01,2013-02-03 10:29:00,
2013-02-03 05:30:00,30.9,24.6,30.00,SSE,158,0.0,0.0,77,0.00,,---,0.00,VWS V14.01,2013-02-03 10:30:00,
2013-02-03 05:34:00,32.0,25.3,29.97,SSE,158,0.0,0.0,76,0.00,,---,0.00,VWS V14.01,2013-02-03 10:34:00,
2013-02-03 05:35:00,31.5,25.4,30.00,SSE,158,0.0,0.0,78,0.00,,---,0.00,VWS V14.01,2013-02-03 10:35:00,
2013-02-03 05:39:00,32.4,26.0,29.97,SSE,158,0.0,0.0,77,0.00,,---,0.00,VWS V14.01,2013-02-03 10:39:00,
2013-02-03 05:40:00,31.6,25.6,30.00,SSE,158,0.0,0.0,78,0.00,,---,0.00,VWS V14.01,2013-02-03 10:40:00,
2013-02-03 05:44:00,32.5,26.1,29.97,SSE,158,0.0,0.0,77,0.00,,---,0.00,VWS V14.01,2013-02-03 10:44:00,
2013-02-03 05:45:00,31.5,25.1,29.97,SSE,158,0.0,0.0,77,0.00,,---,0.00,VWS V14.01,2013-02-03 10:45:00,
2013-02-03 05:49:00,32.5,26.1,29.97,SSE,158,0.0,0.0,77,0.00,,---,0.00,VWS V14.01,2013-02-03 10:49:00,
2013-02-03 05:50:00,31.1,24.8,29.97,SSE,158,0.0,0.0,77,0.00,,---,0.00,VWS V14.01,2013-02-03 10:50:00,
2013-02-03 05:54:00,32.4,26.0,29.97,SSE,158,0.0,0.0,77,0.00,,---,0.00,VWS V14.01,2013-02-03 10:54:00,
2013-02-03 05:55:00,30.9,24.9,29.97,SSE,158,0.0,0.0,78,0.00,,---,0.00,VWS V14.01,2013-02-03 10:55:00,
2013-02-03 05:59:00,32.2,25.8,29.97,SSE,158,0.0,0.0,77,0.00,,---,0.00,VWS V14.01,2013-02-03 10:59:00,
2013-02-03 06:00:00,31.1,24.8,30.00,SSE,158,0.0,0.0,77,0.00,,---,0.00,VWS V14.01,2013-02-03 11:00:00,
2013-02-03 06:04:00,32.2,25.8,29.97,SSE,158,0.0,0.0,77,0.00,,---,0.00,VWS V14.01,2013-02-03 11:04:00,
2013-02-03 06:05:00,31.5,25.4,30.00,SSE,158,0.0,0.0,78,0.00,,---,0.00,VWS V14.01,2013-02-03 11:05:00,
2013-02-03 06:09:00,32.0,25.6,29.97,SSE,158,0.0,0.0,77,0.00,,---,0.00,VWS V14.01,2013-02-03 11:09:00,
2013-02-03 06:10:00,31.6,25.6,30.00,SSE,158,0.0,0.0,78,0.00,,---,0.00,VWS V14.01,2013-02-03 11:10:00,
2013-02-03 06:14:00,31.5,25.1,29.97,SSE,158,0.0,0.0,77,0.00,,---,0.00,VWS V14.01,2013-02-03 11:14:00,
2013-02-03 06:15:00,31.8,26.1,30.00,SSE,158,0.0,0.0,79,0.00,,---,0.00,VWS V14.01,2013-02-03 11:15:00,
2013-02-03 06:19:00,31.1,24.8,29.97,SSE,158,0.0,0.0,77,0.00,,---,0.00,VWS V14.01,2013-02-03 11:19:00,
2013-02-03 06:20:00,31.6,25.9,30.00,SSE,158,0.0,0.0,79,0.00,,---,0.00,VWS V14.01,2013-02-03 11:20:00,
2013-02-03 06:24:00,30.7,24.4,29.97,SSE,158,0.0,0.0,77,0.00,,---,0.00,VWS V14.01,2013-02-03 11:24:00,
2013-02-03 06:25:00,31.8,26.1,30.00,SSE,158,0.0,0.0,79,0.00,,---,0.00,VWS V14.01,2013-02-03 11:25:00,
2013-02-03 06:29:00,30.6,24.2,30.00,SSE,158,0.0,0.0,77,0.00,,---,0.00,VWS V14.01,2013-02-03 11:29:00,
2013-02-03 06:30:00,32.2,26.4,30.00,SSE,158,0.0,0.0,79,0.00,,---,0.00,VWS V14.01,2013-02-03 11:30:00,
2013-02-03 06:34:00,31.5,25.4,30.00,SSE,158,0.0,0.0,78,0.00,,---,0.00,VWS V14.01,2013-02-03 11:34:00,
2013-02-03 06:35:00,32.4,26.6,30.00,SSE,158,0.0,0.0,79,0.00,,---,0.00,VWS V14.01,2013-02-03 11:35:00,
2013-02-03 06:39:00,31.6,25.6,30.00,SSE,158,0.0,0.0,78,0.00,,---,0.00,VWS V14.01,2013-02-03 11:39:00,
2013-02-03 06:40:00,32.9,27.1,30.00,SSE,158,0.0,0.0,79,0.00,,---,0.00,VWS V14.01,2013-02-03 11:40:00,
2013-02-03 06:44:00,31.6,25.3,29.97,SSE,158,0.0,0.0,77,0.00,,---,0.00,VWS V14.01,2013-02-03 11:44:00,
2013-02-03 06:45:00,33.8,28.3,30.00,SSE,158,0.0,0.0,80,0.00,,---,0.00,VWS V14.01,2013-02-03 11:45:00,
2013-02-03 06:49:00,31.1,24.8,29.97,SSE,158,0.0,0.0,77,0.00,,---,0.00,VWS V14.01,2013-02-03 11:49:00,
2013-02-03 06:50:00,34.0,28.8,30.00,SSE,158,0.0,0.0,81,0.00,,---,0.00,VWS V14.01,2013-02-03 11:50:00,
2013-02-03 06:54:00,30.9,24.9,29.97,SSE,158,0.0,0.0,78,0.00,,---,0.00,VWS V14.01,2013-02-03 11:54:00,
2013-02-03 06:55:00,34.0,28.5,30.00,SSE,158,0.0,0.0,80,0.00,,---,0.00,VWS V14.01,2013-02-03 11:55:00,
2013-02-03 06:59:00,31.1,25.0,30.00,SSE,158,0.0,0.0,78,0.00,,---,0.00,VWS V14.01,2013-02-03 11:59:00,
2013-02-03 07:00:00,34.5,29.0,30.03,SSE,158,0.0,0.0,80,0.00,,---,0.00,VWS V14.01,2013-02-03 12:00:00,
2013-02-03 07:04:00,31.5,25.4,30.00,SSE,158,0.0,0.0,78,0.00,,---,0.00,VWS V14.01,2013-02-03 12:04:00,
2013-02-03 07:05:00,35.4,30.2,30.03,SSE,158,0.0,0.0,81,0.00,,---,0.00,VWS V14.01,2013-02-03 12:05:00,
2013-02-03 07:09:00,31.5,25.4,30.00,SSE,158,0.0,0.0,78,0.00,,---,0.00,VWS V14.01,2013-02-03 12:09:00,
2013-02-03 07:10:00,36.0,30.7,30.03,SSE,158,0.0,0.0,81,0.00,,---,0.00,VWS V14.01,2013-02-03 12:10:00,
2013-02-03 07:14:00,31.6,25.6,30.00,SSE,158,0.0,0.0,78,0.00,,---,0.00,VWS V14.01,2013-02-03 12:14:00,
2013-02-03 07:15:00,36.9,31.9,30.00,SSE,158,0.0,0.0,82,0.00,,---,0.00,VWS V14.01,2013-02-03 12:15:00,
2013-02-03 07:19:00,31.8,26.1,30.00,SSE,158,0.0,0.0,79,0.00,,---,0.00,VWS V14.01,2013-02-03 12:19:00,
2013-02-03 07:20:00,37.9,33.2,30.00,SSE,158,0.0,0.0,83,0.00,,---,0.00,VWS V14.01,2013-02-03 12:20:00,
2013-02-03 07:24:00,31.8,26.1,30.00,SSE,158,0.0,0.0,79,0.00,,---,0.00,VWS V14.01,2013-02-03 12:24:00,
2013-02-03 07:25:00,39.0,34.6,30.00,SSE,158,0.0,0.0,84,0.00,,---,0.00,VWS V14.01,2013-02-03 12:25:00,
2013-02-03 07:29:00,32.0,26.2,30.00,SSE,158,0.0,0.0,79,0.00,,---,0.00,VWS V14.01,2013-02-03 12:29:00,
2013-02-03 07:30:00,40.6,36.5,30.00,SSE,158,0.0,0.0,85,0.00,,---,0.00,VWS V14.01,2013-02-03 12:30:00,
2013-02-03 07:34:00,32.4,26.6,30.00,SSE,158,0.0,0.0,79,0.00,,---,0.00,VWS V14.01,2013-02-03 12:34:00,
2013-02-03 07:35:00,42.3,38.4,30.00,SSE,158,0.0,0.0,86,0.00,,---,0.00,VWS V14.01,2013-02-03 12:35:00,
2013-02-03 07:39:00,32.5,26.8,30.00,SSE,158,0.0,0.0,79,0.00,,---,0.00,VWS V14.01,2013-02-03 12:39:00,
2013-02-03 07:40:00,43.7,39.8,30.00,SSE,158,0.0,0.0,86,0.00,,---,0.00,VWS V14.01,2013-02-03 12:40:00,
2013-02-03 07:44:00,33.8,28.3,30.00,SSE,158,0.0,0.0,80,0.00,,---,0.00,VWS V14.01,2013-02-03 12:44:00,
2013-02-03 07:45:00,46.0,42.1,30.03,SSE,158,0.0,0.0,86,0.00,,---,0.00,VWS V14.01,2013-02-03 12:45:00,
2013-02-03 07:49:00,33.8,28.3,30.00,SSE,158,0.0,0.0,80,0.00,,---,0.00,VWS V14.01,2013-02-03 12:49:00,
2013-02-03 07:50:00,47.3,43.3,30.03,South,180,0.0,0.0,86,0.00,,---,0.00,VWS V14.01,2013-02-03 12:50:00,
2013-02-03 07:54:00,34.0,28.5,30.00,SSE,158,0.0,0.0,80,0.00,,---,0.00,VWS V14.01,2013-02-03 12:54:00,
2013-02-03 07:55:00,48.4,43.5,30.03,SSW,202,0.0,0.0,83,0.00,,---,0.00,VWS V14.01,2013-02-03 12:55:00,
2013-02-03 07:59:00,34.3,28.8,30.03,SSE,158,0.0,0.0,80,0.00,,---,0.00,VWS V14.01,2013-02-03 12:59:00,
2013-02-03 08:00:00,50.5,44.3,30.00,South,180,0.0,0.0,79,0.00,,---,0.00,VWS V14.01,2013-02-03 13:00:00,
2013-02-03 08:04:00,34.9,29.6,30.03,SSE,158,0.0,0.0,81,0.00,,---,0.00,VWS V14.01,2013-02-03 13:04:00,
2013-02-03 08:05:00,52.0,44.0,30.00,ESE,112,0.0,0.0,74,0.00,,---,0.00,VWS V14.01,2013-02-03 13:05:00,
2013-02-03 08:09:00,35.8,30.5,30.03,SSE,158,0.0,0.0,81,0.00,,---,0.00,VWS V14.01,2013-02-03 13:09:00,
2013-02-03 08:10:00,52.7,43.6,30.00,East,90,0.0,1.1,71,0.00,,---,0.00,VWS V14.01,2013-02-03 13:10:00,
2013-02-03 08:14:00,36.7,31.7,30.00,SSE,158,0.0,0.0,82,0.00,,---,0.00,VWS V14.01,2013-02-03 13:14:00,
2013-02-03 08:15:00,52.9,41.5,30.00,East,90,0.0,2.2,65,0.00,,---,0.00,VWS V14.01,2013-02-03 13:15:00,
2013-02-03 08:19:00,37.2,32.5,30.00,SSE,158,0.0,0.0,83,0.00,,---,0.00,VWS V14.01,2013-02-03 13:19:00,
2013-02-03 08:20:00,53.6,41.7,30.00,West,270,0.0,0.9,64,0.00,,---,0.00,VWS V14.01,2013-02-03 13:20:00,
2013-02-03 08:24:00,38.5,33.8,30.00,SSE,158,0.0,0.0,83,0.00,,---,0.00,VWS V14.01,2013-02-03 13:24:00,
2013-02-03 08:25:00,54.5,42.2,30.00,WSW,248,0.0,2.0,63,0.00,,---,0.00,VWS V14.01,2013-02-03 13:25:00,
2013-02-03 08:29:00,40.3,36.1,30.00,SSE,158,0.0,0.0,85,0.00,,---,0.00,VWS V14.01,2013-02-03 13:29:00,
2013-02-03 08:30:00,55.0,41.8,30.00,WSW,248,0.0,2.2,61,0.00,,---,0.00,VWS V14.01,2013-02-03 13:30:00,
2013-02-03 08:34:00,41.2,37.0,30.00,SSE,158,0.0,0.0,85,0.00,,---,0.00,VWS V14.01,2013-02-03 13:34:00,
2013-02-03 08:35:00,56.1,42.0,30.00,NNW,338,0.0,1.3,59,0.00,,---,0.00,VWS V14.01,2013-02-03 13:35:00,
2013-02-03 08:39:00,43.3,39.4,30.00,SSE,158,0.0,0.0,86,0.00,,---,0.00,VWS V14.01,2013-02-03 13:39:00,
2013-02-03 08:40:00,57.0,42.8,30.00,West,270,1.6,2.9,59,0.00,,---,0.00,VWS V14.01,2013-02-03 13:40:00,
2013-02-03 08:45:00,59.2,43.5,30.03,NNW,338,1.6,1.6,56,0.00,,---,0.00,VWS V14.01,2013-02-03 13:45:00,
2013-02-03 08:46:00,46.0,42.1,30.03,SSE,158,0.0,0.0,86,0.00,,---,0.00,VWS V14.01,2013-02-03 13:46:00,
2013-02-03 08:50:00,60.4,43.2,30.03,WSW,248,2.5,2.5,53,0.00,,---,0.00,VWS V14.01,2013-02-03 13:50:00,
2013-02-03 08:51:00,47.3,43.3,30.03,South,180,0.0,0.0,86,0.00,,---,0.00,VWS V14.01,2013-02-03 13:51:00,
2013-02-03 08:55:00,61.7,43.4,30.03,SSE,158,0.0,2.9,51,0.00,,---,0.00,VWS V14.01,2013-02-03 13:55:00,
2013-02-03 08:56:00,48.4,43.5,30.03,SSW,202,0.0,0.0,83,0.00,,---,0.00,VWS V14.01,2013-02-03 13:56:00,
2013-02-03 09:00:00,62.8,42.8,30.03,SW,225,1.1,2.9,48,0.00,,---,0.00,VWS V14.01,2013-02-03 14:00:00,
2013-02-03 09:01:00,50.5,44.3,30.00,South,180,0.0,0.0,79,0.00,,---,0.00,VWS V14.01,2013-02-03 14:01:00,
2013-02-03 09:05:00,64.2,43.0,30.03,SW,225,1.3,2.0,46,0.00,,---,0.00,VWS V14.01,2013-02-03 14:05:00,
2013-02-03 09:06:00,52.0,44.0,30.00,ESE,112,0.0,0.0,74,0.00,,---,0.00,VWS V14.01,2013-02-03 14:06:00,
2013-02-03 09:10:00,65.5,43.0,30.03,West,270,3.4,3.4,44,0.00,,---,0.00,VWS V14.01,2013-02-03 14:10:00,
2013-02-03 09:11:00,52.7,43.6,30.00,East,90,0.0,1.1,71,0.00,,---,0.00,VWS V14.01,2013-02-03 14:11:00,
2013-02-03 09:15:00,66.9,43.1,30.00,NNW,338,3.6,4.9,42,0.00,,---,0.00,VWS V14.01,2013-02-03 14:15:00,
2013-02-03 09:16:00,52.9,41.5,30.00,East,90,0.0,2.2,65,0.00,,---,0.00,VWS V14.01,2013-02-03 14:16:00,
2013-02-03 09:20:00,67.8,42.0,30.00,NNW,338,2.9,4.0,39,0.00,,---,0.00,VWS V14.01,2013-02-03 14:20:00,
2013-02-03 09:21:00,53.6,41.7,30.00,West,270,0.0,0.9,64,0.00,,---,0.00,VWS V14.01,2013-02-03 14:21:00,
2013-02-03 09:25:00,67.6,41.8,30.00,NNW,338,5.6,5.6,39,0.00,,---,0.00,VWS V14.01,2013-02-03 14:25:00,
2013-02-03 09:26:00,54.5,42.2,30.00,WSW,248,0.0,2.0,63,0.00,,---,0.00,VWS V14.01,2013-02-03 14:26:00,
2013-02-03 09:30:00,67.5,41.0,30.00,NNE,22,2.7,5.6,38,0.00,,---,0.00,VWS V14.01,2013-02-03 14:30:00,
2013-02-03 09:31:00,55.0,41.8,30.00,WSW,248,0.0,2.2,61,0.00,,---,0.00,VWS V14.01,2013-02-03 14:31:00,
2013-02-03 09:35:00,68.4,41.1,30.00,NNE,22,2.7,2.7,37,0.00,,---,0.00,VWS V14.01,2013-02-03 14:35:00,
2013-02-03 09:36:00,56.1,42.0,30.00,NNW,338,0.0,1.3,59,0.00,,---,0.00,VWS V14.01,2013-02-03 14:36:00,
2013-02-03 09:40:00,69.3,41.9,30.00,North,0,6.3,6.3,37,0.00,,---,0.00,VWS V14.01,2013-02-03 14:40:00,
2013-02-03 09:41:00,57.0,42.8,30.00,West,270,1.6,2.9,59,0.00,,---,0.00,VWS V14.01,2013-02-03 14:41:00,
2013-02-03 09:45:00,69.6,41.5,30.00,NNW,338,3.4,6.3,36,0.00,,---,0.00,VWS V14.01,2013-02-03 14:45:00,
2013-02-03 09:46:00,59.2,43.5,30.03,NNW,338,1.6,1.6,56,0.00,,---,0.00,VWS V14.01,2013-02-03 14:46:00,
2013-02-03 09:50:00,70.5,41.6,30.00,West,270,4.3,4.3,35,0.00,,---,0.00,VWS V14.01,2013-02-03 14:50:00,
2013-02-03 09:51:00,60.4,43.2,30.03,WSW,248,2.5,2.5,53,0.00,,---,0.00,VWS V14.01,2013-02-03 14:51:00,
2013-02-03 09:55:00,70.5,41.6,30.00,West,270,1.6,4.3,35,0.00,,---,0.00,VWS V14.01,2013-02-03 14:55:00,
2013-02-03 09:56:00,61.7,43.4,30.03,SSE,158,0.0,2.9,51,0.00,,---,0.00,VWS V14.01,2013-02-03 14:56:00,
2013-02-03 10:00:00,71.4,42.4,30.00,NNW,338,2.9,3.1,35,0.00,,---,0.00,VWS V14.01,2013-02-03 15:00:00,
2013-02-03 10:01:00,62.8,42.8,30.03,SW,225,1.1,2.9,48,0.00,,---,0.00,VWS V14.01,2013-02-03 15:01:00,
2013-02-03 10:05:00,72.0,42.1,30.00,WNW,292,2.5,2.9,34,0.00,,---,0.00,VWS V14.01,2013-02-03 15:05:00,
2013-02-03 10:06:00,64.2,43.0,30.03,SW,225,1.3,2.0,46,0.00,,---,0.00,VWS V14.01,2013-02-03 15:06:00,
2013-02-03 10:10:00,70.7,41.0,30.00,NNW,338,4.9,4.9,34,0.00,,---,0.00,VWS V14.01,2013-02-03 15:10:00,
2013-02-03 10:11:00,65.5,43.0,30.03,West,270,3.4,3.4,44,0.00,,---,0.00,VWS V14.01,2013-02-03 15:11:00,
2013-02-03 10:15:00,71.2,41.5,30.00,WNW,292,5.4,5.4,34,0.00,,---,0.00,VWS V14.01,2013-02-03 15:15:00,
2013-02-03 10:16:00,66.9,43.1,30.00,NNW,338,3.6,4.9,42,0.00,,---,0.00,VWS V14.01,2013-02-03 15:16:00,
2013-02-03 10:20:00,72.0,41.3,30.00,NW,315,3.4,5.4,33,0.00,,---,0.00,VWS V14.01,2013-02-03 15:20:00,
2013-02-03 10:21:00,67.8,42.0,30.00,NNW,338,2.9,4.0,39,0.00,,---,0.00,VWS V14.01,2013-02-03 15:21:00,
2013-02-03 10:25:00,73.6,42.7,30.00,NNW,338,1.1,3.4,33,0.00,,---,0.00,VWS V14.01,2013-02-03 15:25:00,
2013-02-03 10:26:00,67.6,41.8,30.00,NNW,338,5.6,5.6,39,0.00,,---,0.00,VWS V14.01,2013-02-03 15:26:00,
2013-02-03 10:30:00,73.6,42.7,30.00,NW,315,1.1,5.4,33,0.00,,---,0.00,VWS V14.01,2013-02-03 15:30:00,
2013-02-03 10:31:00,67.5,41.0,30.00,NNE,22,2.7,5.6,38,0.00,,---,0.00,VWS V14.01,2013-02-03 15:31:00,
2013-02-03 10:35:00,73.8,42.1,30.00,North,0,2.9,5.6,32,0.00,,---,0.00,VWS V14.01,2013-02-03 15:35:00,
2013-02-03 10:36:00,68.4,41.1,30.00,NNE,22,2.7,2.7,37,0.00,,---,0.00,VWS V14.01,2013-02-03 15:36:00,
2013-02-03 10:40:00,73.6,41.9,30.00,West,270,0.9,4.7,32,0.00,,---,0.00,VWS V14.01,2013-02-03 15:40:00,
2013-02-03 10:41:00,69.3,41.9,30.00,North,0,6.3,6.3,37,0.00,,---,0.00,VWS V14.01,2013-02-03 15:41:00,
2013-02-03 10:45:00,74.1,42.4,30.00,WSW,248,1.3,5.6,32,0.00,,---,0.00,VWS V14.01,2013-02-03 15:45:00,
2013-02-03 10:46:00,69.6,41.5,30.00,NNW,338,3.4,6.3,36,0.00,,---,0.00,VWS V14.01,2013-02-03 15:46:00,
2013-02-03 10:50:00,74.7,42.9,30.00,WNW,292,0.9,5.6,32,0.00,,---,0.00,VWS V14.01,2013-02-03 15:50:00,
2013-02-03 10:51:00,70.5,41.6,30.00,West,270,4.3,4.3,35,0.00,,---,0.00,VWS V14.01,2013-02-03 15:51:00,
2013-02-03 10:55:00,76.8,43.9,30.00,West,270,2.2,4.3,31,0.00,,---,0.00,VWS V14.01,2013-02-03 15:55:00,
2013-02-03 10:56:00,70.5,41.6,30.00,West,270,1.6,4.3,35,0.00,,---,0.00,VWS V14.01,2013-02-03 15:56:00,
2013-02-03 11:00:00,76.5,43.6,29.97,NW,315,3.8,4.9,31,0.00,,---,0.00,VWS V14.01,2013-02-03 16:00:00,
2013-02-03 11:01:00,71.4,42.4,30.00,NNW,338,2.9,3.1,35,0.00,,---,0.00,VWS V14.01,2013-02-03 16:01:00,
2013-02-03 11:05:00,75.9,43.2,29.97,WSW,248,2.5,5.6,31,0.00,,---,0.00,VWS V14.01,2013-02-03 16:05:00,
2013-02-03 11:06:00,72.0,42.1,30.00,WNW,292,2.5,2.9,34,0.00,,---,0.00,VWS V14.01,2013-02-03 16:06:00,
2013-02-03 11:10:00,73.6,41.1,29.97,NW,315,6.5,6.5,31,0.00,,---,0.00,VWS V14.01,2013-02-03 16:10:00,
2013-02-03 11:11:00,70.7,41.0,30.00,NNW,338,4.9,4.9,34,0.00,,---,0.00,VWS V14.01,2013-02-03 16:11:00,
2013-02-03 11:15:00,69.6,38.5,29.97,NW,315,3.4,6.5,32,0.00,,---,0.00,VWS V14.01,2013-02-03 16:15:00,
2013-02-03 11:16:00,71.2,41.5,30.00,WNW,292,5.4,5.4,34,0.00,,---,0.00,VWS V14.01,2013-02-03 16:16:00,
2013-02-03 11:20:00,70.7,39.4,29.97,NE,45,3.4,3.4,32,0.00,,---,0.00,VWS V14.01,2013-02-03 16:20:00,
2013-02-03 11:21:00,72.0,41.3,30.00,NW,315,3.4,5.4,33,0.00,,---,0.00,VWS V14.01,2013-02-03 16:21:00,
2013-02-03 11:25:00,73.6,41.9,29.97,WSW,248,0.0,4.7,32,0.00,,---,0.00,VWS V14.01,2013-02-03 16:25:00,
2013-02-03 11:26:00,73.6,42.7,30.00,NNW,338,1.1,3.4,33,0.00,,---,0.00,VWS V14.01,2013-02-03 16:26:00,
2013-02-03 11:30:00,74.1,41.6,29.97,SSW,202,3.1,4.9,31,0.00,,---,0.00,VWS V14.01,2013-02-03 16:30:00,
2013-02-03 11:31:00,73.6,42.7,30.00,NW,315,1.1,5.4,33,0.00,,---,0.00,VWS V14.01,2013-02-03 16:31:00,
2013-02-03 11:35:00,72.9,41.3,29.97,WSW,248,2.7,4.7,32,0.00,,---,0.00,VWS V14.01,2013-02-03 16:35:00,
2013-02-03 11:36:00,73.8,42.1,30.00,North,0,2.9,5.6,32,0.00,,---,0.00,VWS V14.01,2013-02-03 16:36:00,
2013-02-03 11:40:00,71.6,40.2,29.97,NW,315,3.8,5.6,32,0.00,,---,0.00,VWS V14.01,2013-02-03 16:40:00,
2013-02-03 11:41:00,73.6,41.9,30.00,West,270,0.9,4.7,32,0.00,,---,0.00,VWS V14.01,2013-02-03 16:41:00,
2013-02-03 11:45:00,71.2,39.9,29.97,NW,315,2.5,6.0,32,0.00,,---,0.00,VWS V14.01,2013-02-03 16:45:00,
2013-02-03 11:46:00,74.1,42.4,30.00,WSW,248,1.3,5.6,32,0.00,,---,0.00,VWS V14.01,2013-02-03 16:46:00,
2013-02-03 11:50:00,72.3,40.8,29.97,NNW,338,4.0,6.0,32,0.00,,---,0.00,VWS V14.01,2013-02-03 16:50:00,
2013-02-03 11:51:00,74.7,42.9,30.00,WNW,292,0.9,5.6,32,0.00,,---,0.00,VWS V14.01,2013-02-03 16:51:00,
2013-02-03 11:55:00,71.2,39.9,29.97,NNW,338,2.7,4.9,32,0.00,,---,0.00,VWS V14.01,2013-02-03 16:55:00,
2013-02-03 11:56:00,76.8,43.9,30.00,West,270,2.2,4.3,31,0.00,,---,0.00,VWS V14.01,2013-02-03 16:56:00,
2013-02-03 12:00:00,71.4,40.0,29.94,WNW,292,1.6,4.3,32,0.00,,---,0.00,VWS V14.01,2013-02-03 17:00:00,
2013-02-03 12:01:00,76.5,43.6,29.97,NW,315,3.8,4.9,31,0.00,,---,0.00,VWS V14.01,2013-02-03 17:01:00,
2013-02-03 12:05:00,71.2,39.9,29.94,West,270,3.1,4.0,32,0.00,,---,0.00,VWS V14.01,2013-02-03 17:05:00,
2013-02-03 12:06:00,75.9,43.1,29.97,WSW,248,2.5,5.6,31,0.00,,---,0.00,VWS V14.01,2013-02-03 17:06:00,
2013-02-03 12:10:00,72.0,40.5,29.94,NNW,338,2.9,5.4,32,0.00,,---,0.00,VWS V14.01,2013-02-03 17:10:00,
2013-02-03 12:11:00,73.6,41.1,29.97,NW,315,6.5,6.5,31,0.00,,---,0.00,VWS V14.01,2013-02-03 17:11:00,
2013-02-03 12:15:00,70.7,39.4,29.94,West,270,3.1,4.3,32,0.00,,---,0.00,VWS V14.01,2013-02-03 17:15:00,
2013-02-03 12:16:00,69.6,38.5,29.97,NW,315,3.4,6.5,32,0.00,,---,0.00,VWS V14.01,2013-02-03 17:16:00,
2013-02-03 12:20:00,70.3,39.1,29.94,NW,315,2.5,5.8,32,0.00,,---,0.00,VWS V14.01,2013-02-03 17:20:00,
2013-02-03 12:21:00,70.7,39.4,29.97,NE,45,3.4,3.4,32,0.00,,---,0.00,VWS V14.01,2013-02-03 17:21:00,
2013-02-03 12:25:00,72.0,40.5,29.94,WNW,292,0.0,3.4,32,0.00,,---,0.00,VWS V14.01,2013-02-03 17:25:00,
2013-02-03 12:26:00,73.6,41.9,29.97,WSW,248,0.0,4.7,32,0.00,,---,0.00,VWS V14.01,2013-02-03 17:26:00,
2013-02-03 12:30:00,72.3,40.8,29.94,SW,225,4.3,5.6,32,0.00,,---,0.00,VWS V14.01,2013-02-03 17:30:00,
2013-02-03 12:31:00,74.1,41.6,29.97,SSW,202,3.1,4.9,31,0.00,,---,0.00,VWS V14.01,2013-02-03 17:31:00,
2013-02-03 12:35:00,72.1,40.7,29.94,NNW,338,2.5,4.3,32,0.00,,---,0.00,VWS V14.01,2013-02-03 17:35:00,
2013-02-03 12:36:00,72.9,41.3,29.97,WSW,248,2.7,4.7,32,0.00,,---,0.00,VWS V14.01,2013-02-03 17:36:00,
2013-02-03 12:40:00,71.1,39.7,29.94,West,270,3.6,4.3,32,0.00,,---,0.00,VWS V14.01,2013-02-03 17:40:00,
2013-02-03 12:41:00,71.6,40.2,29.97,NW,315,3.8,5.6,32,0.00,,---,0.00,VWS V14.01,2013-02-03 17:41:00,
2013-02-03 12:45:00,71.2,39.9,29.91,WSW,248,3.8,5.4,32,0.00,,---,0.00,VWS V14.01,2013-02-03 17:45:00,
2013-02-03 12:46:00,71.2,39.9,29.97,NW,315,2.5,6.0,32,0.00,,---,0.00,VWS V14.01,2013-02-03 17:46:00,
2013-02-03 12:50:00,72.1,40.7,29.91,NW,315,1.3,3.8,32,0.00,,---,0.00,VWS V14.01,2013-02-03 17:50:00,
2013-02-03 12:51:00,72.3,40.8,29.97,NNW,338,4.0,6.0,32,0.00,,---,0.00,VWS V14.01,2013-02-03 17:51:00,
2013-02-03 12:55:00,71.6,39.4,29.91,NW,315,1.1,6.0,31,0.00,,---,0.00,VWS V14.01,2013-02-03 17:55:00,
2013-02-03 12:56:00,71.2,39.9,29.97,NNW,338,2.7,4.9,32,0.00,,---,0.00,VWS V14.01,2013-02-03 17:56:00,
2013-02-03 13:00:00,71.2,39.9,29.91,West,270,2.2,5.8,32,0.00,,---,0.00,VWS V14.01,2013-02-03 18:00:00,
2013-02-03 13:01:00,71.4,40.0,29.94,WNW,292,1.6,4.3,32,0.00,,---,0.00,VWS V14.01,2013-02-03 18:01:00,
2013-02-03 13:05:00,70.5,37.6,29.91,West,270,2.5,5.8,30,0.00,,---,0.00,VWS V14.01,2013-02-03 18:05:00,
2013-02-03 13:06:00,71.2,39.9,29.94,West,270,3.1,4.0,32,0.00,,---,0.00,VWS V14.01,2013-02-03 18:06:00,
2013-02-03 13:10:00,69.8,36.1,29.91,North,0,2.0,6.3,29,0.00,,---,0.00,VWS V14.01,2013-02-03 18:10:00,
2013-02-03 13:11:00,72.0,40.5,29.94,NNW,338,2.9,5.4,32,0.00,,---,0.00,VWS V14.01,2013-02-03 18:11:00,
2013-02-03 13:15:00,70.0,37.2,29.91,West,270,6.0,6.0,30,0.00,,---,0.00,VWS V14.01,2013-02-03 18:15:00,
2013-02-03 13:16:00,70.7,39.4,29.94,West,270,3.1,4.3,32,0.00,,---,0.00,VWS V14.01,2013-02-03 18:16:00,
2013-02-03 13:20:00,69.8,37.0,29.91,WSW,248,2.5,6.0,30,0.00,,---,0.00,VWS V14.01,2013-02-03 18:20:00,
2013-02-03 13:21:00,70.3,39.1,29.94,NW,315,2.5,5.8,32,0.00,,---,0.00,VWS V14.01,2013-02-03 18:21:00,
2013-02-03 13:25:00,69.4,37.5,29.91,West,270,0.9,6.3,31,0.00,,---,0.00,VWS V14.01,2013-02-03 18:25:00,
2013-02-03 13:26:00,72.0,40.5,29.94,WNW,292,0.0,3.4,32,0.00,,---,0.00,VWS V14.01,2013-02-03 18:26:00,
2013-02-03 13:30:00,69.4,36.7,29.91,West,270,3.1,5.4,30,0.00,,---,0.00,VWS V14.01,2013-02-03 18:30:00,
2013-02-03 13:31:00,72.3,40.8,29.94,SW,225,4.3,5.6,32,0.00,,---,0.00,VWS V14.01,2013-02-03 18:31:00,
2013-02-03 13:35:00,69.1,36.4,29.91,West,270,2.7,6.3,30,0.00,,---,0.00,VWS V14.01,2013-02-03 18:35:00,
2013-02-03 13:36:00,72.1,40.7,29.94,NNW,338,2.5,4.3,32,0.00,,---,0.00,VWS V14.01,2013-02-03 18:36:00,
2013-02-03 13:40:00,69.3,36.5,29.91,WSW,248,5.8,5.8,30,0.00,,---,0.00,VWS V14.01,2013-02-03 18:40:00,
2013-02-03 13:41:00,71.1,39.7,29.94,West,270,3.6,4.3,32,0.00,,---,0.00,VWS V14.01,2013-02-03 18:41:00,
2013-02-03 13:45:00,68.9,35.4,29.91,West,270,1.6,5.8,29,0.00,,---,0.00,VWS V14.01,2013-02-03 18:45:00,
2013-02-03 13:46:00,71.2,39.9,29.91,WSW,248,3.8,5.4,32,0.00,,---,0.00,VWS V14.01,2013-02-03 18:46:00,
2013-02-03 13:50:00,68.7,35.2,29.91,West,270,2.7,4.7,29,0.00,,---,0.00,VWS V14.01,2013-02-03 18:50:00,
2013-02-03 13:51:00,72.1,40.7,29.91,NW,315,1.3,3.8,32,0.00,,---,0.00,VWS V14.01,2013-02-03 18:51:00,
2013-02-03 13:55:00,68.7,35.2,29.91,East,90,2.2,3.6,29,0.00,,---,0.00,VWS V14.01,2013-02-03 18:55:00,
2013-02-03 13:56:00,71.6,39.4,29.91,NW,315,1.1,6.0,31,0.00,,---,0.00,VWS V14.01,2013-02-03 18:56:00,
2013-02-03 14:00:00,68.5,35.0,29.91,NNW,338,5.4,6.0,29,0.00,,---,0.00,VWS V14.01,2013-02-03 19:00:00,
2013-02-03 14:01:00,71.2,39.9,29.91,West,270,2.2,5.8,32,0.00,,---,0.00,VWS V14.01,2013-02-03 19:01:00,
2013-02-03 14:05:00,68.4,34.9,29.91,NW,315,2.0,5.4,29,0.00,,---,0.00,VWS V14.01,2013-02-03 19:05:00,
2013-02-03 14:06:00,70.5,37.6,29.91,West,270,2.5,5.8,30,0.00,,---,0.00,VWS V14.01,2013-02-03 19:06:00,
2013-02-03 14:10:00,68.4,34.9,29.91,WNW,292,2.0,5.4,29,0.00,,---,0.00,VWS V14.01,2013-02-03 19:10:00,
2013-02-03 14:11:00,69.8,36.1,29.91,North,0,2.0,6.3,29,0.00,,---,0.00,VWS V14.01,2013-02-03 19:11:00,
2013-02-03 14:15:00,68.0,34.6,29.91,WSW,248,1.6,7.4,29,0.00,,---,0.00,VWS V14.01,2013-02-03 19:15:00,
2013-02-03 14:16:00,70.0,37.2,29.91,West,270,6.0,6.0,30,0.00,,---,0.00,VWS V14.01,2013-02-03 19:16:00,
2013-02-03 14:20:00,68.0,34.6,29.91,North,0,2.7,3.6,29,0.00,,---,0.00,VWS V14.01,2013-02-03 19:20:00,
2013-02-03 14:21:00,69.8,37.0,29.91,WSW,248,2.5,6.0,30,0.00,,---,0.00,VWS V14.01,2013-02-03 19:21:00,
2013-02-03 14:25:00,68.2,34.7,29.91,NNW,338,1.1,4.3,29,0.00,,---,0.00,VWS V14.01,2013-02-03 19:25:00,
2013-02-03 14:26:00,69.4,37.5,29.91,West,270,0.9,6.3,31,0.00,,---,0.00,VWS V14.01,2013-02-03 19:26:00,
2013-02-03 14:30:00,68.2,33.9,29.91,WNW,292,1.3,4.0,28,0.00,,---,0.00,VWS V14.01,2013-02-03 19:30:00,
2013-02-03 14:31:00,69.4,36.7,29.91,West,270,3.1,5.4,30,0.00,,---,0.00,VWS V14.01,2013-02-03 19:31:00,
2013-02-03 14:35:00,68.5,34.2,29.91,West,270,2.0,5.8,28,0.00,,---,0.00,VWS V14.01,2013-02-03 19:35:00,
2013-02-03 14:36:00,69.1,36.4,29.91,West,270,2.7,6.3,30,0.00,,---,0.00,VWS V14.01,2013-02-03 19:36:00,
2013-02-03 14:40:00,68.4,34.0,29.91,WNW,292,1.6,3.4,28,0.00,,---,0.00,VWS V14.01,2013-02-03 19:40:00,
2013-02-03 14:41:00,69.3,36.5,29.91,WSW,248,5.8,5.8,30,0.00,,---,0.00,VWS V14.01,2013-02-03 19:41:00,
2013-02-03 14:45:00,68.5,34.2,29.91,NNW,338,0.0,4.7,28,0.00,,---,0.00,VWS V14.01,2013-02-03 19:45:00,
2013-02-03 14:46:00,68.9,35.4,29.91,West,270,1.6,5.8,29,0.00,,---,0.00,VWS V14.01,2013-02-03 19:46:00,
2013-02-03 14:50:00,68.4,34.0,29.91,West,270,0.0,3.4,28,0.00,,---,0.00,VWS V14.01,2013-02-03 19:50:00,
2013-02-03 14:51:00,68.7,35.2,29.91,West,270,2.7,4.7,29,0.00,,---,0.00,VWS V14.01,2013-02-03 19:51:00,
2013-02-03 14:55:00,68.2,33.9,29.91,WSW,248,0.0,4.0,28,0.00,,---,0.00,VWS V14.01,2013-02-03 19:55:00,
2013-02-03 14:56:00,68.7,35.2,29.91,East,90,2.2,3.6,29,0.00,,---,0.00,VWS V14.01,2013-02-03 19:56:00,
2013-02-03 15:00:00,68.2,32.0,29.91,WSW,248,1.3,5.4,26,0.00,,---,0.00,VWS V14.01,2013-02-03 20:00:00,
2013-02-03 15:01:00,68.5,35.0,29.91,NNW,338,5.4,6.0,29,0.00,,---,0.00,VWS V14.01,2013-02-03 20:01:00,
2013-02-03 15:05:00,68.0,29.9,29.91,West,270,0.9,5.8,24,0.00,,---,0.00,VWS V14.01,2013-02-03 20:05:00,
2013-02-03 15:06:00,68.4,34.9,29.91,NW,315,2.0,5.4,29,0.00,,---,0.00,VWS V14.01,2013-02-03 20:06:00,
2013-02-03 15:10:00,67.6,29.6,29.91,West,270,3.1,4.9,24,0.00,,---,0.00,VWS V14.01,2013-02-03 20:10:00,
2013-02-03 15:11:00,68.4,34.9,29.91,WNW,292,2.0,5.4,29,0.00,,---,0.00,VWS V14.01,2013-02-03 20:11:00,
2013-02-03 15:15:00,67.5,28.4,29.91,West,270,5.6,5.8,23,0.00,,---,0.00,VWS V14.01,2013-02-03 20:15:00,
2013-02-03 15:16:00,68.0,34.6,29.91,WSW,248,1.6,7.4,29,0.00,,---,0.00,VWS V14.01,2013-02-03 20:16:00,
2013-02-03 15:20:00,67.1,28.1,29.91,WNW,292,3.4,5.6,23,0.00,,---,0.00,VWS V14.01,2013-02-03 20:20:00,
2013-02-03 15:21:00,68.0,34.6,29.91,North,0,2.7,3.6,29,0.00,,---,0.00,VWS V14.01,2013-02-03 20:21:00,
2013-02-03 15:25:00,66.9,27.9,29.91,West,270,3.6,4.0,23,0.00,,---,0.00,VWS V14.01,2013-02-03 20:25:00,
2013-02-03 15:26:00,68.2,34.7,29.91,NNW,338,1.1,4.3,29,0.00,,---,0.00,VWS V14.01,2013-02-03 20:26:00,
2013-02-03 15:30:00,66.7,27.8,29.91,West,270,4.9,5.6,23,0.00,,---,0.00,VWS V14.01,2013-02-03 20:30:00,
2013-02-03 15:31:00,68.2,33.9,29.91,WNW,292,1.3,4.0,28,0.00,,---,0.00,VWS V14.01,2013-02-03 20:31:00,
2013-02-03 15:35:00,66.4,27.5,29.91,NW,315,0.0,4.9,23,0.00,,---,0.00,VWS V14.01,2013-02-03 20:35:00,
2013-02-03 15:36:00,68.5,34.2,29.91,West,270,2.0,5.8,28,0.00,,---,0.00,VWS V14.01,2013-02-03 20:36:00,
2013-02-03 15:40:00,66.7,27.8,29.91,SW,225,3.1,4.3,23,0.00,,---,0.00,VWS V14.01,2013-02-03 20:40:00,
2013-02-03 15:41:00,68.4,34.0,29.91,WNW,292,1.6,3.4,28,0.00,,---,0.00,VWS V14.01,2013-02-03 20:41:00,
2013-02-03 15:45:00,66.2,27.3,29.91,East,90,2.0,4.0,23,0.00,,---,0.00,VWS V14.01,2013-02-03 20:45:00,
2013-02-03 15:46:00,68.5,34.2,29.91,NNW,338,0.0,4.7,28,0.00,,---,0.00,VWS V14.01,2013-02-03 20:46:00,
2013-02-03 15:50:00,66.0,27.2,29.91,West,270,4.3,4.3,23,0.00,,---,0.00,VWS V14.01,2013-02-03 20:50:00,
2013-02-03 15:51:00,68.4,34.0,29.91,West,270,0.0,3.4,28,0.00,,---,0.00,VWS V14.01,2013-02-03 20:51:00,
2013-02-03 15:55:00,66.0,27.2,29.91,WNW,292,4.3,4.7,23,0.00,,---,0.00,VWS V14.01,2013-02-03 20:55:00,
2013-02-03 15:56:00,68.2,33.9,29.91,WSW,248,0.0,4.0,28,0.00,,---,0.00,VWS V14.01,2013-02-03 20:56:00,
2013-02-03 16:00:00,65.5,26.7,29.91,NNW,338,2.2,4.3,23,0.00,,---,0.00,VWS V14.01,2013-02-03 21:00:00,
2013-02-03 16:01:00,68.2,32.0,29.91,WSW,248,1.3,5.4,26,0.00,,---,0.00,VWS V14.01,2013-02-03 21:01:00,
2013-02-03 16:05:00,64.8,26.1,29.91,West,270,3.6,4.5,23,0.00,,---,0.00,VWS V14.01,2013-02-03 21:05:00,
2013-02-03 16:06:00,68.0,29.9,29.91,West,270,0.9,5.8,24,0.00,,---,0.00,VWS V14.01,2013-02-03 21:06:00,
2013-02-03 16:10:00,64.4,25.8,29.91,WNW,292,3.8,3.8,23,0.00,,---,0.00,VWS V14.01,2013-02-03 21:10:00,
2013-02-03 16:11:00,67.6,29.6,29.91,West,270,3.1,4.9,24,0.00,,---,0.00,VWS V14.01,2013-02-03 21:11:00,
2013-02-03 16:15:00,64.4,25.8,29.91,West,270,2.5,7.6,23,0.00,,---,0.00,VWS V14.01,2013-02-03 21:15:00,
2013-02-03 16:16:00,67.5,28.4,29.91,West,270,5.6,5.8,23,0.00,,---,0.00,VWS V14.01,2013-02-03 21:16:00,
2013-02-03 16:20:00,63.9,26.4,29.91,West,270,2.5,3.8,24,0.00,,---,0.00,VWS V14.01,2013-02-03 21:20:00,
2013-02-03 16:21:00,67.1,28.1,29.91,WNW,292,3.4,5.6,23,0.00,,---,0.00,VWS V14.01,2013-02-03 21:21:00,
2013-02-03 16:25:00,63.3,25.9,29.91,WSW,248,0.0,4.0,24,0.00,,---,0.00,VWS V14.01,2013-02-03 21:25:00,
2013-02-03 16:26:00,66.9,27.9,29.91,West,270,3.6,4.0,23,0.00,,---,0.00,VWS V14.01,2013-02-03 21:26:00,
2013-02-03 16:30:00,63.0,25.6,29.91,NW,315,0.0,3.1,24,0.00,,---,0.00,VWS V14.01,2013-02-03 21:30:00,
2013-02-03 16:31:00,66.7,27.8,29.91,West,270,4.9,5.6,23,0.00,,---,0.00,VWS V14.01,2013-02-03 21:31:00,
2013-02-03 16:35:00,61.9,24.7,29.91,West,270,0.0,2.0,24,0.00,,---,0.00,VWS V14.01,2013-02-03 21:35:00,
2013-02-03 16:36:00,66.4,27.5,29.91,NW,315,0.0,4.9,23,0.00,,---,0.00,VWS V14.01,2013-02-03 21:36:00,
2013-02-03 16:40:00,61.9,24.7,29.91,WNW,292,1.6,4.0,24,0.00,,---,0.00,VWS V14.01,2013-02-03 21:40:00,
2013-02-03 16:41:00,66.7,27.8,29.91,SW,225,3.1,4.3,23,0.00,,---,0.00,VWS V14.01,2013-02-03 21:41:00,
2013-02-03 16:45:00,61.0,24.0,29.91,WSW,248,0.0,2.0,24,0.00,,---,0.00,VWS V14.01,2013-02-03 21:45:00,
2013-02-03 16:46:00,66.2,27.3,29.91,East,90,2.0,4.0,23,0.00,,---,0.00,VWS V14.01,2013-02-03 21:46:00,
2013-02-03 16:50:00,61.3,25.2,29.91,West,270,0.0,2.9,25,0.00,,---,0.00,VWS V14.01,2013-02-03 21:50:00,
2013-02-03 16:51:00,66.0,27.2,29.91,West,270,4.3,4.3,23,0.00,,---,0.00,VWS V14.01,2013-02-03 21:51:00,
2013-02-03 16:55:00,60.4,24.5,29.91,WSW,248,0.0,0.9,25,0.00,,---,0.00,VWS V14.01,2013-02-03 21:55:00,
2013-02-03 16:56:00,66.0,27.2,29.91,WNW,292,4.3,4.7,23,0.00,,---,0.00,VWS V14.01,2013-02-03 21:56:00,
2013-02-03 17:00:00,59.9,24.0,29.91,WSW,248,0.0,1.3,25,0.00,,---,0.00,VWS V14.01,2013-02-03 22:00:00,
2013-02-03 17:01:00,65.5,26.7,29.91,NNW,338,2.2,4.3,23,0.00,,---,0.00,VWS V14.01,2013-02-03 22:01:00,
2013-02-03 17:05:00,59.4,23.6,29.91,NNW,338,0.0,1.1,25,0.00,,---,0.00,VWS V14.01,2013-02-03 22:05:00,
2013-02-03 17:06:00,64.8,26.1,29.91,West,270,3.6,4.5,23,0.00,,---,0.00,VWS V14.01,2013-02-03 22:06:00,
2013-02-03 17:10:00,57.9,22.3,29.91,ESE,112,0.0,0.0,25,0.00,,---,0.00,VWS V14.01,2013-02-03 22:10:00,
2013-02-03 17:11:00,64.4,25.8,29.91,WNW,292,3.8,3.8,23,0.00,,---,0.00,VWS V14.01,2013-02-03 22:11:00,
2013-02-03 17:15:00,56.8,22.3,29.91,SSW,202,0.0,0.0,26,0.00,,---,0.00,VWS V14.01,2013-02-03 22:15:00,
2013-02-03 17:16:00,64.4,25.8,29.91,West,270,2.5,7.6,23,0.00,,---,0.00,VWS V14.01,2013-02-03 22:16:00,
2013-02-03 17:20:00,56.3,21.9,29.91,SSW,202,0.0,0.0,26,0.00,,---,0.00,VWS V14.01,2013-02-03 22:20:00,
2013-02-03 17:21:00,63.9,26.4,29.91,West,270,2.5,3.8,24,0.00,,---,0.00,VWS V14.01,2013-02-03 22:21:00,
2013-02-03 17:25:00,55.2,21.0,29.91,SSE,158,0.0,0.0,26,0.00,,---,0.00,VWS V14.01,2013-02-03 22:25:00,
2013-02-03 17:26:00,63.3,25.9,29.91,WSW,248,0.0,4.0,24,0.00,,---,0.00,VWS V14.01,2013-02-03 22:26:00,
2013-02-03 17:30:00,54.9,20.6,29.91,West,270,0.0,2.0,26,0.00,,---,0.00,VWS V14.01,2013-02-03 22:30:00,
2013-02-03 17:31:00,63.0,25.6,29.91,NW,315,0.0,3.1,24,0.00,,---,0.00,VWS V14.01,2013-02-03 22:31:00,
2013-02-03 17:35:00,54.3,20.2,29.91,West,270,0.0,0.0,26,0.00,,---,0.00,VWS V14.01,2013-02-03 22:35:00,
2013-02-03 17:36:00,61.9,24.7,29.91,West,270,0.0,2.0,24,0.00,,---,0.00,VWS V14.01,2013-02-03 22:36:00,
2013-02-03 17:40:00,54.0,20.8,29.91,West,270,0.0,0.0,27,0.00,,---,0.00,VWS V14.01,2013-02-03 22:40:00,
2013-02-03 17:41:00,61.9,24.7,29.91,WNW,292,1.6,4.0,24,0.00,,---,0.00,VWS V14.01,2013-02-03 22:41:00,
2013-02-03 17:45:00,53.6,20.5,29.91,SSW,202,0.0,0.0,27,0.00,,---,0.00,VWS V14.01,2013-02-03 22:45:00,
2013-02-03 17:46:00,61.0,24.0,29.91,WSW,248,0.0,2.0,24,0.00,,---,0.00,VWS V14.01,2013-02-03 22:46:00,
2013-02-03 17:50:00,53.1,20.0,29.91,SSW,202,0.0,0.0,27,0.00,,---,0.00,VWS V14.01,2013-02-03 22:50:00,
2013-02-03 17:51:00,61.3,25.2,29.91,West,270,0.0,2.9,25,0.00,,---,0.00,VWS V14.01,2013-02-03 22:51:00,
2013-02-03 17:55:00,52.0,19.1,29.91,SSW,202,0.0,0.0,27,0.00,,---,0.00,VWS V14.01,2013-02-03 22:55:00,
2013-02-03 17:56:00,60.4,24.5,29.91,WSW,248,0.0,0.9,25,0.00,,---,0.00,VWS V14.01,2013-02-03 22:56:00,
2013-02-03 18:00:00,51.3,19.3,29.94,South,180,0.0,0.0,28,0.00,,---,0.00,VWS V14.01,2013-02-03 23:00:00,
2013-02-03 18:01:00,59.9,24.0,29.91,WSW,248,0.0,1.3,25,0.00,,---,0.00,VWS V14.01,2013-02-03 23:01:00,
2013-02-03 18:05:00,50.9,19.0,29.94,SE,135,0.0,0.0,28,0.00,,---,0.00,VWS V14.01,2013-02-03 23:05:00,
2013-02-03 18:06:00,59.4,23.6,29.91,NNW,338,0.0,1.1,25,0.00,,---,0.00,VWS V14.01,2013-02-03 23:06:00,
2013-02-03 18:10:00,50.9,19.8,29.94,SSE,158,0.0,0.0,29,0.00,,---,0.00,VWS V14.01,2013-02-03 23:10:00,
2013-02-03 18:11:00,57.9,22.3,29.91,ESE,112,0.0,0.0,25,0.00,,---,0.00,VWS V14.01,2013-02-03 23:11:00,
2013-02-03 18:15:00,50.2,19.2,29.94,SSE,158,0.0,0.0,29,0.00,,---,0.00,VWS V14.01,2013-02-03 23:15:00,
2013-02-03 18:16:00,56.8,22.3,29.91,SSW,202,0.0,0.0,26,0.00,,---,0.00,VWS V14.01,2013-02-03 23:16:00,
2013-02-03 18:20:00,50.0,19.8,29.94,SSE,158,0.0,0.0,30,0.00,,---,0.00,VWS V14.01,2013-02-03 23:20:00,
2013-02-03 18:21:00,56.3,21.9,29.91,SSW,202,0.0,0.0,26,0.00,,---,0.00,VWS V14.01,2013-02-03 23:21:00,
2013-02-03 18:25:00,49.6,20.3,29.94,SSE,158,0.0,0.0,31,0.00,,---,0.00,VWS V14.01,2013-02-03 23:25:00,
2013-02-03 18:26:00,55.2,21.0,29.91,SSE,158,0.0,0.0,26,0.00,,---,0.00,VWS V14.01,2013-02-03 23:26:00,
2013-02-03 18:30:00,49.6,21.0,29.94,SSE,158,0.0,0.0,32,0.00,,---,0.00,VWS V14.01,2013-02-03 23:30:00,
2013-02-03 18:31:00,54.9,20.6,29.91,West,270,0.0,2.0,26,0.00,,---,0.00,VWS V14.01,2013-02-03 23:31:00,
2013-02-03 18:35:00,49.6,21.7,29.94,SSE,158,0.0,0.0,33,0.00,,---,0.00,VWS V14.01,2013-02-03 23:35:00,
2013-02-03 18:36:00,54.3,20.2,29.91,West,270,0.0,0.0,26,0.00,,---,0.00,VWS V14.01,2013-02-03 23:36:00,
2013-02-03 18:40:00,49.5,23.0,29.94,SSE,158,0.0,0.0,35,0.00,,---,0.00,VWS V14.01,2013-02-03 23:40:00,
2013-02-03 18:41:00,54.0,20.8,29.91,West,270,0.0,0.0,27,0.00,,---,0.00,VWS V14.01,2013-02-03 23:41:00,
2013-02-03 18:45:00,48.7,23.0,29.94,SSE,158,0.0,0.0,36,0.00,,---,0.00,VWS V14.01,2013-02-03 23:45:00,
2013-02-03 18:46:00,53.6,20.5,29.91,SSW,202,0.0,0.0,27,0.00,,---,0.00,VWS V14.01,2013-02-03 23:46:00,
2013-02-03 18:50:00,48.2,23.2,29.94,SE,135,0.0,0.0,37,0.00,,---,0.00,VWS V14.01,2013-02-03 23:50:00,
2013-02-03 18:51:00,53.1,20.0,29.91,SSW,202,0.0,0.0,27,0.00,,---,0.00,VWS V14.01,2013-02-03 23:51:00,
2013-02-03 18:55:00,48.0,23.6,29.94,SE,135,0.0,0.0,38,0.00,,---,0.00,VWS V14.01,2013-02-03 23:55:00,
2013-02-03 18:56:00,52.0,19.1,29.91,SSW,202,0.0,0.0,27,0.00,,---,0.00,VWS V14.01,2013-02-03 23:56:00,
2013-02-03 19:00:00,48.0,23.6,29.94,SE,135,0.0,0.0,38,0.00,,---,0.00,VWS V14.01,2013-02-04 00:00:00,
2013-02-03 19:01:00,51.3,19.3,29.94,South,180,0.0,0.0,28,0.00,,---,0.00,VWS V14.01,2013-02-04 00:01:00,
2013-02-03 19:05:00,48.4,24.6,29.94,SE,135,0.0,0.0,39,0.00,,---,0.00,VWS V14.01,2013-02-04 00:05:00,
2013-02-03 19:06:00,50.9,19.0,29.94,SE,135,0.0,0.0,28,0.00,,---,0.00,VWS V14.01,2013-02-04 00:06:00,
2013-02-03 19:10:00,47.8,24.7,29.94,SE,135,0.0,0.0,40,0.00,,---,0.00,VWS V14.01,2013-02-04 00:10:00,
2013-02-03 19:11:00,50.9,19.8,29.94,SSE,158,0.0,0.0,29,0.00,,---,0.00,VWS V14.01,2013-02-04 00:11:00,
2013-02-03 19:15:00,47.5,25.0,29.97,SE,135,0.0,0.0,41,0.00,,---,0.00,VWS V14.01,2013-02-04 00:15:00,
2013-02-03 19:16:00,50.2,19.2,29.94,SSE,158,0.0,0.0,29,0.00,,---,0.00,VWS V14.01,2013-02-04 00:16:00,
2013-02-03 19:20:00,47.1,24.6,29.97,SE,135,0.0,0.0,41,0.00,,---,0.00,VWS V14.01,2013-02-04 00:20:00,
2013-02-03 19:21:00,50.0,19.8,29.94,SSE,158,0.0,0.0,30,0.00,,---,0.00,VWS V14.01,2013-02-04 00:21:00,
2013-02-03 19:25:00,46.4,24.6,29.97,SE,135,0.0,0.0,42,0.00,,---,0.00,VWS V14.01,2013-02-04 00:25:00,
2013-02-03 19:26:00,49.6,20.3,29.94,SSE,158,0.0,0.0,31,0.00,,---,0.00,VWS V14.01,2013-02-04 00:26:00,
2013-02-03 19:30:00,46.0,25.4,29.94,SE,135,0.0,0.0,44,0.00,,---,0.00,VWS V14.01,2013-02-04 00:30:00,
2013-02-03 19:31:00,49.6,21.0,29.94,SSE,158,0.0,0.0,32,0.00,,---,0.00,VWS V14.01,2013-02-04 00:31:00,
2013-02-03 19:35:00,46.2,25.5,29.94,SSE,158,0.0,0.0,44,0.00,,---,0.00,VWS V14.01,2013-02-04 00:35:00,
2013-02-03 19:36:00,49.6,21.7,29.94,SSE,158,0.0,0.0,33,0.00,,---,0.00,VWS V14.01,2013-02-04 00:36:00,
2013-02-03 19:40:00,46.0,25.9,29.94,SSE,158,0.0,0.0,45,0.00,,---,0.00,VWS V14.01,2013-02-04 00:40:00,
2013-02-03 19:41:00,49.5,23.0,29.94,SSE,158,0.0,0.0,35,0.00,,---,0.00,VWS V14.01,2013-02-04 00:41:00,
2013-02-03 19:45:00,45.0,26.0,29.97,SSE,158,0.0,0.0,47,0.00,,---,0.00,VWS V14.01,2013-02-04 00:45:00,
2013-02-03 19:46:00,48.7,23.0,29.94,SSE,158,0.0,0.0,36,0.00,,---,0.00,VWS V14.01,2013-02-04 00:46:00,
2013-02-03 19:50:00,45.3,26.8,29.97,South,180,0.0,0.0,48,0.00,,---,0.00,VWS V14.01,2013-02-04 00:50:00,
2013-02-03 19:51:00,48.2,23.2,29.94,SE,135,0.0,0.0,37,0.00,,---,0.00,VWS V14.01,2013-02-04 00:51:00,
2013-02-03 19:55:00,44.4,26.0,29.97,South,180,0.0,0.0,48,0.00,,---,0.00,VWS V14.01,2013-02-04 00:55:00,
2013-02-03 19:56:00,48.0,23.6,29.94,SE,135,0.0,0.0,38,0.00,,---,0.00,VWS V14.01,2013-02-04 00:56:00,
2013-02-03 20:00:00,44.2,26.3,29.94,South,180,0.0,0.0,49,0.00,,---,0.00,VWS V14.01,2013-02-04 01:00:00,
2013-02-03 20:01:00,48.0,23.6,29.94,SE,135,0.0,0.0,38,0.00,,---,0.00,VWS V14.01,2013-02-04 01:01:00,
2013-02-03 20:05:00,44.2,26.3,29.94,South,180,0.0,0.0,49,0.00,,---,0.00,VWS V14.01,2013-02-04 01:05:00,
2013-02-03 20:06:00,48.4,24.6,29.94,SE,135,0.0,0.0,39,0.00,,---,0.00,VWS V14.01,2013-02-04 01:06:00,
2013-02-03 20:10:00,44.1,26.6,29.94,South,180,0.0,0.0,50,0.00,,---,0.00,VWS V14.01,2013-02-04 01:10:00,
2013-02-03 20:11:00,47.8,24.7,29.94,SE,135,0.0,0.0,40,0.00,,---,0.00,VWS V14.01,2013-02-04 01:11:00,
2013-02-03 20:15:00,43.2,25.8,29.97,South,180,0.0,0.0,50,0.00,,---,0.00,VWS V14.01,2013-02-04 01:15:00,
2013-02-03 20:16:00,47.5,25.0,29.97,SE,135,0.0,0.0,41,0.00,,---,0.00,VWS V14.01,2013-02-04 01:16:00,
2013-02-03 20:20:00,42.6,25.8,29.97,South,180,0.0,0.0,51,0.00,,---,0.00,VWS V14.01,2013-02-04 01:20:00,
2013-02-03 20:21:00,47.1,24.6,29.97,SE,135,0.0,0.0,41,0.00,,---,0.00,VWS V14.01,2013-02-04 01:21:00,
2013-02-03 20:25:00,42.8,25.9,29.97,South,180,0.0,0.0,51,0.00,,---,0.00,VWS V14.01,2013-02-04 01:25:00,
2013-02-03 20:26:00,46.4,24.6,29.97,SE,135,0.0,0.0,42,0.00,,---,0.00,VWS V14.01,2013-02-04 01:26:00,
2013-02-03 20:30:00,41.9,25.6,29.97,South,180,0.0,0.0,52,0.00,,---,0.00,VWS V14.01,2013-02-04 01:30:00,
2013-02-03 20:31:00,46.0,25.4,29.94,SE,135,0.0,0.0,44,0.00,,---,0.00,VWS V14.01,2013-02-04 01:31:00,
2013-02-03 20:35:00,42.3,25.9,29.97,South,180,0.0,0.0,52,0.00,,---,0.00,VWS V14.01,2013-02-04 01:35:00,
2013-02-03 20:36:00,46.2,25.5,29.94,SSE,158,0.0,0.0,44,0.00,,---,0.00,VWS V14.01,2013-02-04 01:36:00,
2013-02-03 20:40:00,42.6,26.7,29.97,South,180,0.0,0.0,53,0.00,,---,0.00,VWS V14.01,2013-02-04 01:40:00,
2013-02-03 20:41:00,46.0,25.9,29.94,SSE,158,0.0,0.0,45,0.00,,---,0.00,VWS V14.01,2013-02-04 01:41:00,
2013-02-03 20:45:00,42.3,26.8,29.97,South,180,0.0,0.0,54,0.00,,---,0.00,VWS V14.01,2013-02-04 01:45:00,
2013-02-03 20:46:00,45.0,26.0,29.97,SSE,158,0.0,0.0,47,0.00,,---,0.00,VWS V14.01,2013-02-04 01:46:00,
2013-02-03 20:50:00,41.5,25.7,29.97,South,180,0.0,0.0,53,0.00,,---,0.00,VWS V14.01,2013-02-04 01:50:00,
2013-02-03 20:51:00,45.3,26.8,29.97,South,180,0.0,0.0,48,0.00,,---,0.00,VWS V14.01,2013-02-04 01:51:00,
2013-02-03 20:55:00,41.7,26.3,29.97,South,180,0.0,0.0,54,0.00,,---,0.00,VWS V14.01,2013-02-04 01:55:00,
2013-02-03 20:56:00,44.4,26.0,29.97,South,180,0.0,0.0,48,0.00,,---,0.00,VWS V14.01,2013-02-04 01:56:00,
2013-02-03 21:00:00,41.2,26.7,29.97,South,180,0.0,0.0,56,0.00,,---,0.00,VWS V14.01,2013-02-04 02:00:00,
2013-02-03 21:05:00,41.0,26.5,29.97,South,180,0.0,0.0,56,0.00,,---,0.00,VWS V14.01,2013-02-04 02:05:00,
2013-02-03 21:06:00,44.2,26.3,29.94,South,180,0.0,0.0,49,0.00,,---,0.00,VWS V14.01,2013-02-04 02:06:00,
2013-02-03 21:10:00,40.3,25.9,29.97,South,180,0.0,0.0,56,0.00,,---,0.00,VWS V14.01,2013-02-04 02:10:00,
2013-02-03 21:11:00,44.1,26.6,29.94,South,180,0.0,0.0,50,0.00,,---,0.00,VWS V14.01,2013-02-04 02:11:00,
2013-02-03 21:15:00,39.9,25.9,29.97,South,180,0.0,0.0,57,0.00,,---,0.00,VWS V14.01,2013-02-04 02:15:00,
2013-02-03 21:16:00,43.2,25.8,29.97,South,180,0.0,0.0,50,0.00,,---,0.00,VWS V14.01,2013-02-04 02:16:00,
2013-02-03 21:20:00,40.3,26.3,29.97,South,180,0.0,0.0,57,0.00,,---,0.00,VWS V14.01,2013-02-04 02:20:00,
2013-02-03 21:21:00,42.6,25.8,29.97,South,180,0.0,0.0,51,0.00,,---,0.00,VWS V14.01,2013-02-04 02:21:00,
2013-02-03 21:25:00,39.6,26.0,29.97,South,180,0.0,0.0,58,0.00,,---,0.00,VWS V14.01,2013-02-04 02:25:00,
2013-02-03 21:26:00,42.8,25.9,29.97,South,180,0.0,0.0,51,0.00,,---,0.00,VWS V14.01,2013-02-04 02:26:00,
2013-02-03 21:30:00,39.0,25.9,29.97,South,180,0.0,0.0,59,0.00,,---,0.00,VWS V14.01,2013-02-04 02:30:00,
2013-02-03 21:31:00,41.9,25.6,29.97,South,180,0.0,0.0,52,0.00,,---,0.00,VWS V14.01,2013-02-04 02:31:00,
2013-02-03 21:35:00,39.7,27.0,29.97,South,180,0.0,0.0,60,0.00,,---,0.00,VWS V14.01,2013-02-04 02:35:00,
2013-02-03 21:36:00,42.3,25.9,29.97,South,180,0.0,0.0,52,0.00,,---,0.00,VWS V14.01,2013-02-04 02:36:00,
2013-02-03 21:40:00,39.4,27.1,29.97,South,180,0.0,0.0,61,0.00,,---,0.00,VWS V14.01,2013-02-04 02:40:00,
2013-02-03 21:41:00,42.6,26.7,29.97,South,180,0.0,0.0,53,0.00,,---,0.00,VWS V14.01,2013-02-04 02:41:00,
2013-02-03 21:45:00,38.5,26.2,29.97,South,180,0.0,0.0,61,0.00,,---,0.00,VWS V14.01,2013-02-04 02:45:00,
2013-02-03 21:46:00,42.3,26.8,29.97,South,180,0.0,0.0,54,0.00,,---,0.00,VWS V14.01,2013-02-04 02:46:00,
2013-02-03 21:50:00,38.8,27.0,29.97,South,180,0.0,0.0,62,0.00,,---,0.00,VWS V14.01,2013-02-04 02:50:00,
2013-02-03 21:51:00,41.5,25.7,29.97,South,180,0.0,0.0,53,0.00,,---,0.00,VWS V14.01,2013-02-04 02:51:00,
2013-02-03 21:55:00,39.2,27.3,29.97,South,180,0.0,0.0,62,0.00,,---,0.00,VWS V14.01,2013-02-04 02:55:00,
2013-02-03 21:56:00,41.7,26.3,29.97,South,180,0.0,0.0,54,0.00,,---,0.00,VWS V14.01,2013-02-04 02:56:00,
2013-02-03 22:00:00,38.8,27.3,29.97,South,180,0.0,0.0,63,0.00,,---,0.00,VWS V14.01,2013-02-04 03:00:00,
2013-02-03 22:01:00,41.2,26.7,29.97,South,180,0.0,0.0,56,0.00,,---,0.00,VWS V14.01,2013-02-04 03:01:00,
2013-02-03 22:05:00,38.5,27.4,29.97,South,180,0.0,0.0,64,0.00,,---,0.00,VWS V14.01,2013-02-04 03:05:00,
2013-02-03 22:06:00,41.0,26.5,29.97,South,180,0.0,0.0,56,0.00,,---,0.00,VWS V14.01,2013-02-04 03:06:00,
2013-02-03 22:10:00,37.8,26.7,29.97,East,90,0.0,0.0,64,0.00,,---,0.00,VWS V14.01,2013-02-04 03:10:00,
2013-02-03 22:11:00,40.3,25.9,29.97,South,180,0.0,0.0,56,0.00,,---,0.00,VWS V14.01,2013-02-04 03:11:00,
2013-02-03 22:15:00,37.4,26.7,29.94,East,90,0.0,0.0,65,0.00,,---,0.00,VWS V14.01,2013-02-04 03:15:00,
2013-02-03 22:16:00,39.9,25.9,29.97,South,180,0.0,0.0,57,0.00,,---,0.00,VWS V14.01,2013-02-04 03:16:00,
2013-02-03 22:20:00,37.8,27.1,29.94,SE,135,0.0,0.0,65,0.00,,---,0.00,VWS V14.01,2013-02-04 03:20:00,
2013-02-03 22:21:00,40.3,26.3,29.97,South,180,0.0,0.0,57,0.00,,---,0.00,VWS V14.01,2013-02-04 03:21:00,
2013-02-03 22:25:00,37.6,27.3,29.94,SE,135,0.0,0.0,66,0.00,,---,0.00,VWS V14.01,2013-02-04 03:25:00,
2013-02-03 22:26:00,39.6,26.0,29.97,South,180,0.0,0.0,58,0.00,,---,0.00,VWS V14.01,2013-02-04 03:26:00,
2013-02-03 22:30:00,37.0,27.1,29.94,SE,135,0.0,0.0,67,0.00,,---,0.00,VWS V14.01,2013-02-04 03:30:00,
2013-02-03 22:31:00,39.0,25.9,29.97,South,180,0.0,0.0,59,0.00,,---,0.00,VWS V14.01,2013-02-04 03:31:00,
2013-02-03 22:35:00,37.6,27.3,29.94,SE,135,0.0,0.0,66,0.00,,---,0.00,VWS V14.01,2013-02-04 03:35:00,
2013-02-03 22:36:00,39.7,27.0,29.97,South,180,0.0,0.0,60,0.00,,---,0.00,VWS V14.01,2013-02-04 03:36:00,
2013-02-03 22:40:00,37.2,27.6,29.94,SE,135,0.0,0.0,68,0.00,,---,0.00,VWS V14.01,2013-02-04 03:40:00,
2013-02-03 22:41:00,39.4,27.1,29.97,South,180,0.0,0.0,61,0.00,,---,0.00,VWS V14.01,2013-02-04 03:41:00,
2013-02-03 22:45:00,37.6,27.6,29.94,SE,135,0.0,0.0,67,0.00,,---,0.00,VWS V14.01,2013-02-04 03:45:00,
2013-02-03 22:46:00,38.5,26.2,29.97,South,180,0.0,0.0,61,0.00,,---,0.00,VWS V14.01,2013-02-04 03:46:00,
2013-02-03 22:50:00,37.4,27.8,29.94,SE,135,0.0,0.0,68,0.00,,---,0.00,VWS V14.01,2013-02-04 03:50:00,
2013-02-03 22:51:00,38.8,27.0,29.97,South,180,0.0,0.0,62,0.00,,---,0.00,VWS V14.01,2013-02-04 03:51:00,
2013-02-03 22:55:00,37.0,27.8,29.94,SE,135,0.0,0.0,69,0.00,,---,0.00,VWS V14.01,2013-02-04 03:55:00,
2013-02-03 22:56:00,39.2,27.3,29.97,South,180,0.0,0.0,62,0.00,,---,0.00,VWS V14.01,2013-02-04 03:56:00,
2013-02-03 23:00:00,36.9,28.0,29.94,SE,135,0.0,0.0,70,0.00,,---,0.00,VWS V14.01,2013-02-04 04:00:00,
2013-02-03 23:01:00,38.8,27.3,29.97,South,180,0.0,0.0,63,0.00,,---,0.00,VWS V14.01,2013-02-04 04:01:00,
2013-02-03 23:05:00,37.0,28.2,29.94,SE,135,0.0,0.0,70,0.00,,---,0.00,VWS V14.01,2013-02-04 04:05:00,
2013-02-03 23:06:00,38.5,27.4,29.97,South,180,0.0,0.0,64,0.00,,---,0.00,VWS V14.01,2013-02-04 04:06:00,
2013-02-03 23:10:00,37.2,28.4,29.94,SE,135,0.0,0.0,70,0.00,,---,0.00,VWS V14.01,2013-02-04 04:10:00,
2013-02-03 23:11:00,37.8,26.7,29.97,East,90,0.0,0.0,64,0.00,,---,0.00,VWS V14.01,2013-02-04 04:11:00,
2013-02-03 23:15:00,37.4,28.2,29.94,SSE,158,0.0,0.0,69,0.00,,---,0.00,VWS V14.01,2013-02-04 04:15:00,
2013-02-03 23:16:00,37.4,26.7,29.94,East,90,0.0,0.0,65,0.00,,---,0.00,VWS V14.01,2013-02-04 04:16:00,
2013-02-03 23:20:00,37.6,29.0,29.94,SSE,158,0.0,0.0,71,0.00,,---,0.00,VWS V14.01,2013-02-04 04:20:00,
2013-02-03 23:21:00,37.8,27.1,29.94,SE,135,0.0,0.0,65,0.00,,---,0.00,VWS V14.01,2013-02-04 04:21:00,
2013-02-03 23:25:00,37.4,28.9,29.94,SSE,158,0.0,0.0,71,0.00,,---,0.00,VWS V14.01,2013-02-04 04:25:00,
2013-02-03 23:26:00,37.6,27.3,29.94,SE,135,0.0,0.0,66,0.00,,---,0.00,VWS V14.01,2013-02-04 04:26:00,
2013-02-03 23:30:00,36.7,28.5,29.94,ESE,112,0.0,0.0,72,0.00,,---,0.00,VWS V14.01,2013-02-04 04:30:00,
2013-02-03 23:31:00,37.0,27.1,29.94,SE,135,0.0,0.0,67,0.00,,---,0.00,VWS V14.01,2013-02-04 04:31:00,
2013-02-03 23:35:00,36.1,28.0,29.94,ESE,112,0.0,0.0,72,0.00,,---,0.00,VWS V14.01,2013-02-04 04:35:00,
2013-02-03 23:36:00,37.6,27.3,29.94,SE,135,0.0,0.0,66,0.00,,---,0.00,VWS V14.01,2013-02-04 04:36:00,
2013-02-03 23:40:00,36.7,28.5,29.94,SE,135,0.0,0.0,72,0.00,,---,0.00,VWS V14.01,2013-02-04 04:40:00,
2013-02-03 23:41:00,37.2,27.6,29.94,SE,135,0.0,0.0,68,0.00,,---,0.00,VWS V14.01,2013-02-04 04:41:00,
2013-02-03 23:45:00,36.7,28.5,29.94,SE,135,0.0,0.0,72,0.00,,---,0.00,VWS V14.01,2013-02-04 04:45:00,
2013-02-03 23:46:00,37.6,27.6,29.94,SE,135,0.0,0.0,67,0.00,,---,0.00,VWS V14.01,2013-02-04 04:46:00,
2013-02-03 23:50:00,36.5,28.4,29.94,SE,135,0.0,0.0,72,0.00,,---,0.00,VWS V14.01,2013-02-04 04:50:00,
2013-02-03 23:51:00,37.4,27.8,29.94,SE,135,0.0,0.0,68,0.00,,---,0.00,VWS V14.01,2013-02-04 04:51:00,
2013-02-03 23:55:00,35.8,27.6,29.94,SE,135,0.0,0.0,72,0.00,,---,0.00,VWS V14.01,2013-02-04 04:55:00,
2013-02-03 23:56:00,37.0,27.8,29.94,SE,135,0.0,0.0,69,0.00,,---,0.00,VWS V14.01,2013-02-04 04:56:00,